<?xml version="1.0" encoding="UTF-8" standalone="no" ?><gpx xmlns="http://www.topografix.com/GPX/1/1" xmlns:gpxx="http://www.garmin.com/xmlschemas/GpxExtensions/v3" xmlns:wptx1="http://www.garmin.com/xmlschemas/WaypointExtension/v1" xmlns:gpxtpx="http://www.garmin.com/xmlschemas/TrackPointExtension/v1" creator="GuideVTT.com" version="1.1" xmlns:xsi="http://www.w3.org/2001/XMLSchema-instance" xsi:schemaLocation="http://www.topografix.com/GPX/1/1 http://www.topografix.com/GPX/1/1/gpx.xsd http://www.garmin.com/xmlschemas/GpxExtensions/v3 http://www8.garmin.com/xmlschemas/GpxExtensionsv3.xsd http://www.garmin.com/xmlschemas/WaypointExtension/v1 http://www8.garmin.com/xmlschemas/WaypointExtensionv1.xsd http://www.garmin.com/xmlschemas/TrackPointExtension/v1 http://www.garmin.com/xmlschemas/TrackPointExtensionv1.xsd">
<metadata><link href="http://www.garmin.com"><text>Garmin International</text></link><time>2013-06-22T15:13:50Z</time></metadata>
<trk><name>altavilla-cormondes-altavilla.gpx</name><extensions><gpxx:TrackExtension><gpxx:DisplayColor>Cyan</gpxx:DisplayColor></gpxx:TrackExtension></extensions><trkseg>
<trkpt lat="46.93410018" lon="7.15593282"><ele></ele><time>2014-4-13T2:57:10Z</time></trkpt>
<trkpt lat="46.93410018" lon="7.15593282"><ele></ele><time>2014-4-13T2:57:13Z</time></trkpt>
<trkpt lat="46.93418057" lon="7.15569603"><ele></ele><time>2014-4-13T2:57:16Z</time></trkpt>
<trkpt lat="46.93428836" lon="7.15561666"><ele></ele><time>2014-4-13T2:57:19Z</time></trkpt>
<trkpt lat="46.93441476" lon="7.15581296"><ele></ele><time>2014-4-13T2:57:22Z</time></trkpt>
<trkpt lat="46.93454074" lon="7.15582545"><ele></ele><time>2014-4-13T2:57:25Z</time></trkpt>
<trkpt lat="46.93486420" lon="7.15567927"><ele></ele><time>2014-4-13T2:57:28Z</time></trkpt>
<trkpt lat="46.93524155" lon="7.15550660"><ele></ele><time>2014-4-13T2:57:31Z</time></trkpt>
<trkpt lat="46.93561890" lon="7.15532069"><ele></ele><time>2014-4-13T2:57:34Z</time></trkpt>
<trkpt lat="46.93584387" lon="7.15535891"><ele></ele><time>2014-4-13T2:57:37Z</time></trkpt>
<trkpt lat="46.93589819" lon="7.15547685"><ele></ele><time>2014-4-13T2:57:40Z</time></trkpt>
<trkpt lat="46.93614218" lon="7.15596149"><ele></ele><time>2014-4-13T2:57:43Z</time></trkpt>
<trkpt lat="46.93634176" lon="7.15664327"><ele></ele><time>2014-4-13T2:57:46Z</time></trkpt>
<trkpt lat="46.93660478" lon="7.15750870"><ele></ele><time>2014-4-13T2:57:49Z</time></trkpt>
<trkpt lat="46.93692212" lon="7.15854445"><ele></ele><time>2014-4-13T2:57:52Z</time></trkpt>
<trkpt lat="46.93718506" lon="7.15937049"><ele></ele><time>2014-4-13T2:57:55Z</time></trkpt>
<trkpt lat="46.93723946" lon="7.15954090"><ele></ele><time>2014-4-13T2:57:58Z</time></trkpt>
<trkpt lat="46.93762947" lon="7.16086532"><ele></ele><time>2014-4-13T2:58:1Z</time></trkpt>
<trkpt lat="46.93777565" lon="7.16182329"><ele></ele><time>2014-4-13T2:58:4Z</time></trkpt>
<trkpt lat="46.93782116" lon="7.16202001"><ele></ele><time>2014-4-13T2:58:7Z</time></trkpt>
<trkpt lat="46.93820120" lon="7.16296365"><ele></ele><time>2014-4-13T2:58:10Z</time></trkpt>
<trkpt lat="46.93850781" lon="7.16329037"><ele></ele><time>2014-4-13T2:58:13Z</time></trkpt>
<trkpt lat="46.93861560" lon="7.16321108"><ele></ele><time>2014-4-13T2:58:16Z</time></trkpt>
<trkpt lat="46.93879464" lon="7.16284244"><ele></ele><time>2014-4-13T2:58:19Z</time></trkpt>
<trkpt lat="46.93900938" lon="7.16236853"><ele></ele><time>2014-4-13T2:58:22Z</time></trkpt>
<trkpt lat="46.93906294" lon="7.16222377"><ele></ele><time>2014-4-13T2:58:25Z</time></trkpt>
<trkpt lat="46.93918834" lon="7.16198673"><ele></ele><time>2014-4-13T2:58:28Z</time></trkpt>
<trkpt lat="46.93946594" lon="7.16145993"><ele></ele><time>2014-4-13T2:58:31Z</time></trkpt>
<trkpt lat="46.93955513" lon="7.16114427"><ele></ele><time>2014-4-13T2:58:34Z</time></trkpt>
<trkpt lat="46.93957273" lon="7.16098661"><ele></ele><time>2014-4-13T2:58:37Z</time></trkpt>
<trkpt lat="46.93960835" lon="7.16084193"><ele></ele><time>2014-4-13T2:58:40Z</time></trkpt>
<trkpt lat="46.93975193" lon="7.16069676"><ele></ele><time>2014-4-13T2:58:43Z</time></trkpt>
<trkpt lat="46.93991412" lon="7.16082727"><ele></ele><time>2014-4-13T2:58:46Z</time></trkpt>
<trkpt lat="46.94018486" lon="7.16116732"><ele></ele><time>2014-4-13T2:58:49Z</time></trkpt>
<trkpt lat="46.94046473" lon="7.16161240"><ele></ele><time>2014-4-13T2:58:52Z</time></trkpt>
<trkpt lat="46.94068174" lon="7.16207097"><ele></ele><time>2014-4-13T2:58:55Z</time></trkpt>
<trkpt lat="46.94082675" lon="7.16250365"><ele></ele><time>2014-4-13T2:58:58Z</time></trkpt>
<trkpt lat="46.94098081" lon="7.16297563"><ele></ele><time>2014-4-13T2:59:1Z</time></trkpt>
<trkpt lat="46.94140619" lon="7.16407668"><ele></ele><time>2014-4-13T2:59:4Z</time></trkpt>
<trkpt lat="46.94194053" lon="7.16558442"><ele></ele><time>2014-4-13T2:59:7Z</time></trkpt>
<trkpt lat="46.94233951" lon="7.16693516"><ele></ele><time>2014-4-13T2:59:10Z</time></trkpt>
<trkpt lat="46.94268418" lon="7.16814173"><ele></ele><time>2014-4-13T2:59:13Z</time></trkpt>
<trkpt lat="46.94287612" lon="7.16944110"><ele></ele><time>2014-4-13T2:59:16Z</time></trkpt>
<trkpt lat="46.94291325" lon="7.16991375"><ele></ele><time>2014-4-13T2:59:19Z</time></trkpt>
<trkpt lat="46.94301325" lon="7.17035975"><ele></ele><time>2014-4-13T2:59:22Z</time></trkpt>
<trkpt lat="46.94313160" lon="7.17097649"><ele></ele><time>2014-4-13T2:59:25Z</time></trkpt>
<trkpt lat="46.94320461" lon="7.17140959"><ele></ele><time>2014-4-13T2:59:28Z</time></trkpt>
<trkpt lat="46.94343201" lon="7.17251172"><ele></ele><time>2014-4-13T2:59:31Z</time></trkpt>
<trkpt lat="46.94365966" lon="7.17369265"><ele></ele><time>2014-4-13T2:59:34Z</time></trkpt>
<trkpt lat="46.94402402" lon="7.17567413"><ele></ele><time>2014-4-13T2:59:37Z</time></trkpt>
<trkpt lat="46.94410675" lon="7.17643554"><ele></ele><time>2014-4-13T2:59:40Z</time></trkpt>
<trkpt lat="46.94414380" lon="7.17689512"><ele></ele><time>2014-4-13T2:59:43Z</time></trkpt>
<trkpt lat="46.94417188" lon="7.17739410"><ele></ele><time>2014-4-13T2:59:46Z</time></trkpt>
<trkpt lat="46.94402821" lon="7.17748672"><ele></ele><time>2014-4-13T2:59:49Z</time></trkpt>
<trkpt lat="46.94376703" lon="7.17736979"><ele></ele><time>2014-4-13T2:59:52Z</time></trkpt>
<trkpt lat="46.94367701" lon="7.17733081"><ele></ele><time>2014-4-13T2:59:55Z</time></trkpt>
<trkpt lat="46.94359596" lon="7.17729175"><ele></ele><time>2014-4-13T2:59:58Z</time></trkpt>
<trkpt lat="46.94318181" lon="7.17714935"><ele></ele><time>2014-4-13T3:0:1Z</time></trkpt>
<trkpt lat="46.94310989" lon="7.17714968"><ele></ele><time>2014-4-13T3:0:4Z</time></trkpt>
<trkpt lat="46.94233716" lon="7.17753433"><ele></ele><time>2014-4-13T3:0:7Z</time></trkpt>
<trkpt lat="46.94136688" lon="7.17806440"><ele></ele><time>2014-4-13T3:0:10Z</time></trkpt>
<trkpt lat="46.94091769" lon="7.17830295"><ele></ele><time>2014-4-13T3:0:13Z</time></trkpt>
<trkpt lat="46.94071971" lon="7.17827763"><ele></ele><time>2014-4-13T3:0:16Z</time></trkpt>
<trkpt lat="46.94071066" lon="7.17823832"><ele></ele><time>2014-4-13T3:0:19Z</time></trkpt>
<trkpt lat="46.94072717" lon="7.17759468"><ele></ele><time>2014-4-13T3:0:22Z</time></trkpt>
<trkpt lat="46.94074385" lon="7.17701674"><ele></ele><time>2014-4-13T3:0:25Z</time></trkpt>
<trkpt lat="46.94073471" lon="7.17696419"><ele></ele><time>2014-4-13T3:0:28Z</time></trkpt>
<trkpt lat="46.94069842" lon="7.17681994"><ele></ele><time>2014-4-13T3:0:31Z</time></trkpt>
<trkpt lat="46.94067093" lon="7.17660989"><ele></ele><time>2014-4-13T3:0:34Z</time></trkpt>
<trkpt lat="46.94064310" lon="7.17622918"><ele></ele><time>2014-4-13T3:0:37Z</time></trkpt>
<trkpt lat="46.94052516" lon="7.17580950"><ele></ele><time>2014-4-13T3:0:40Z</time></trkpt>
<trkpt lat="46.94046138" lon="7.17542896"><ele></ele><time>2014-4-13T3:0:43Z</time></trkpt>
<trkpt lat="46.94036222" lon="7.17533751"><ele></ele><time>2014-4-13T3:0:46Z</time></trkpt>
<trkpt lat="46.94016508" lon="7.17566676"><ele></ele><time>2014-4-13T3:0:49Z</time></trkpt>
<trkpt lat="46.93997732" lon="7.17617990"><ele></ele><time>2014-4-13T3:0:52Z</time></trkpt>
<trkpt lat="46.93961916" lon="7.17689085"><ele></ele><time>2014-4-13T3:0:55Z</time></trkpt>
<trkpt lat="46.93937684" lon="7.17712839"><ele></ele><time>2014-4-13T3:0:58Z</time></trkpt>
<trkpt lat="46.93905297" lon="7.17711691"><ele></ele><time>2014-4-13T3:1:1Z</time></trkpt>
<trkpt lat="46.93876505" lon="7.17710517"><ele></ele><time>2014-4-13T3:1:4Z</time></trkpt>
<trkpt lat="46.93845936" lon="7.17715915"><ele></ele><time>2014-4-13T3:1:7Z</time></trkpt>
<trkpt lat="46.93783013" lon="7.17734607"><ele></ele><time>2014-4-13T3:1:10Z</time></trkpt>
<trkpt lat="46.93756895" lon="7.17721598"><ele></ele><time>2014-4-13T3:1:13Z</time></trkpt>
<trkpt lat="46.93752361" lon="7.17704549"><ele></ele><time>2014-4-13T3:1:16Z</time></trkpt>
<trkpt lat="46.93754967" lon="7.17663830"><ele></ele><time>2014-4-13T3:1:19Z</time></trkpt>
<trkpt lat="46.93754003" lon="7.17637570"><ele></ele><time>2014-4-13T3:1:22Z</time></trkpt>
<trkpt lat="46.93748547" lon="7.17610010"><ele></ele><time>2014-4-13T3:1:25Z</time></trkpt>
<trkpt lat="46.93705120" lon="7.17501221"><ele></ele><time>2014-4-13T3:1:28Z</time></trkpt>
<trkpt lat="46.93658106" lon="7.17397705"><ele></ele><time>2014-4-13T3:1:31Z</time></trkpt>
<trkpt lat="46.93649070" lon="7.17380681"><ele></ele><time>2014-4-13T3:1:34Z</time></trkpt>
<trkpt lat="46.93601185" lon="7.17288991"><ele></ele><time>2014-4-13T3:1:37Z</time></trkpt>
<trkpt lat="46.93564095" lon="7.17198559"><ele></ele><time>2014-4-13T3:1:40Z</time></trkpt>
<trkpt lat="46.93552318" lon="7.17164470"><ele></ele><time>2014-4-13T3:1:43Z</time></trkpt>
<trkpt lat="46.93533341" lon="7.17129107"><ele></ele><time>2014-4-13T3:1:46Z</time></trkpt>
<trkpt lat="46.93525219" lon="7.17116014"><ele></ele><time>2014-4-13T3:1:49Z</time></trkpt>
<trkpt lat="46.93512571" lon="7.17091128"><ele></ele><time>2014-4-13T3:1:52Z</time></trkpt>
<trkpt lat="46.93453982" lon="7.17041516"><ele></ele><time>2014-4-13T3:1:55Z</time></trkpt>
<trkpt lat="46.93435055" lon="7.17024542"><ele></ele><time>2014-4-13T3:1:58Z</time></trkpt>
<trkpt lat="46.93414285" lon="7.16990503"><ele></ele><time>2014-4-13T3:2:1Z</time></trkpt>
<trkpt lat="46.93378100" lon="7.16902703"><ele></ele><time>2014-4-13T3:2:4Z</time></trkpt>
<trkpt lat="46.93369911" lon="7.16863342"><ele></ele><time>2014-4-13T3:2:7Z</time></trkpt>
<trkpt lat="46.93368981" lon="7.16850216"><ele></ele><time>2014-4-13T3:2:10Z</time></trkpt>
<trkpt lat="46.93369819" lon="7.16826579"><ele></ele><time>2014-4-13T3:2:13Z</time></trkpt>
<trkpt lat="46.93367933" lon="7.16787192"><ele></ele><time>2014-4-13T3:2:16Z</time></trkpt>
<trkpt lat="46.93366994" lon="7.16772750"><ele></ele><time>2014-4-13T3:2:19Z</time></trkpt>
<trkpt lat="46.93372258" lon="7.16714940"><ele></ele><time>2014-4-13T3:2:22Z</time></trkpt>
<trkpt lat="46.93374907" lon="7.16696542"><ele></ele><time>2014-4-13T3:2:25Z</time></trkpt>
<trkpt lat="46.93373063" lon="7.16674229"><ele></ele><time>2014-4-13T3:2:28Z</time></trkpt>
<trkpt lat="46.93361253" lon="7.16627014"><ele></ele><time>2014-4-13T3:2:31Z</time></trkpt>
<trkpt lat="46.93356718" lon="7.16612589"><ele></ele><time>2014-4-13T3:2:34Z</time></trkpt>
<trkpt lat="46.93343122" lon="7.16569330"><ele></ele><time>2014-4-13T3:2:37Z</time></trkpt>
<trkpt lat="46.93331354" lon="7.16536556"><ele></ele><time>2014-4-13T3:2:40Z</time></trkpt>
<trkpt lat="46.93324104" lon="7.16514269"><ele></ele><time>2014-4-13T3:2:43Z</time></trkpt>
<trkpt lat="46.93321371" lon="7.16499835"><ele></ele><time>2014-4-13T3:2:46Z</time></trkpt>
<trkpt lat="46.93307784" lon="7.16459200"><ele></ele><time>2014-4-13T3:2:49Z</time></trkpt>
<trkpt lat="46.93302336" lon="7.16439527"><ele></ele><time>2014-4-13T3:2:52Z</time></trkpt>
<trkpt lat="46.93295094" lon="7.16419872"><ele></ele><time>2014-4-13T3:2:55Z</time></trkpt>
<trkpt lat="46.93276059" lon="7.16360872"><ele></ele><time>2014-4-13T3:2:58Z</time></trkpt>
<trkpt lat="46.93246152" lon="7.16266483"><ele></ele><time>2014-4-13T3:3:1Z</time></trkpt>
<trkpt lat="46.93245239" lon="7.16259920"><ele></ele><time>2014-4-13T3:3:4Z</time></trkpt>
<trkpt lat="46.93239790" lon="7.16238932"><ele></ele><time>2014-4-13T3:3:7Z</time></trkpt>
<trkpt lat="46.93201711" lon="7.16118325"><ele></ele><time>2014-4-13T3:3:10Z</time></trkpt>
<trkpt lat="46.93190823" lon="7.16077672"><ele></ele><time>2014-4-13T3:3:13Z</time></trkpt>
<trkpt lat="46.93181754" lon="7.16047514"><ele></ele><time>2014-4-13T3:3:16Z</time></trkpt>
<trkpt lat="46.93171771" lon="7.16012109"><ele></ele><time>2014-4-13T3:3:19Z</time></trkpt>
<trkpt lat="46.93123810" lon="7.15894176"><ele></ele><time>2014-4-13T3:3:22Z</time></trkpt>
<trkpt lat="46.93116585" lon="7.15883707"><ele></ele><time>2014-4-13T3:3:25Z</time></trkpt>
<trkpt lat="46.93094096" lon="7.15881201"><ele></ele><time>2014-4-13T3:3:28Z</time></trkpt>
<trkpt lat="46.93084340" lon="7.15937720"><ele></ele><time>2014-4-13T3:3:31Z</time></trkpt>
<trkpt lat="46.93082621" lon="7.15970552"><ele></ele><time>2014-4-13T3:3:34Z</time></trkpt>
<trkpt lat="46.93094490" lon="7.16042711"><ele></ele><time>2014-4-13T3:3:37Z</time></trkpt>
<trkpt lat="46.93094515" lon="7.16053222"><ele></ele><time>2014-4-13T3:3:40Z</time></trkpt>
<trkpt lat="46.93101799" lon="7.16088636"><ele></ele><time>2014-4-13T3:3:43Z</time></trkpt>
<trkpt lat="46.93108186" lon="7.16126681"><ele></ele><time>2014-4-13T3:3:46Z</time></trkpt>
<trkpt lat="46.93111162" lon="7.16243533"><ele></ele><time>2014-4-13T3:3:49Z</time></trkpt>
<trkpt lat="46.93107893" lon="7.16380117"><ele></ele><time>2014-4-13T3:3:52Z</time></trkpt>
<trkpt lat="46.93118932" lon="7.16482485"><ele></ele><time>2014-4-13T3:3:55Z</time></trkpt>
<trkpt lat="46.93120767" lon="7.16496918"><ele></ele><time>2014-4-13T3:3:58Z</time></trkpt>
<trkpt lat="46.93130004" lon="7.16597987"><ele></ele><time>2014-4-13T3:4:1Z</time></trkpt>
<trkpt lat="46.93131857" lon="7.16620300"><ele></ele><time>2014-4-13T3:4:4Z</time></trkpt>
<trkpt lat="46.93133768" lon="7.16667557"><ele></ele><time>2014-4-13T3:4:7Z</time></trkpt>
<trkpt lat="46.93135620" lon="7.16691186"><ele></ele><time>2014-4-13T3:4:10Z</time></trkpt>
<trkpt lat="46.93125880" lon="7.16756891"><ele></ele><time>2014-4-13T3:4:13Z</time></trkpt>
<trkpt lat="46.93107960" lon="7.16783244"><ele></ele><time>2014-4-13T3:4:16Z</time></trkpt>
<trkpt lat="46.93076536" lon="7.16810980"><ele></ele><time>2014-4-13T3:4:19Z</time></trkpt>
<trkpt lat="46.93034325" lon="7.16838766"><ele></ele><time>2014-4-13T3:4:22Z</time></trkpt>
<trkpt lat="46.92969600" lon="7.16856167"><ele></ele><time>2014-4-13T3:4:25Z</time></trkpt>
<trkpt lat="46.92966901" lon="7.16854868"><ele></ele><time>2014-4-13T3:4:28Z</time></trkpt>
<trkpt lat="46.92940691" lon="7.16803788"><ele></ele><time>2014-4-13T3:4:31Z</time></trkpt>
<trkpt lat="46.92918940" lon="7.16732986"><ele></ele><time>2014-4-13T3:4:34Z</time></trkpt>
<trkpt lat="46.92900818" lon="7.16677934"><ele></ele><time>2014-4-13T3:4:37Z</time></trkpt>
<trkpt lat="46.92894456" lon="7.16653015"><ele></ele><time>2014-4-13T3:4:40Z</time></trkpt>
<trkpt lat="46.92865530" lon="7.16592757"><ele></ele><time>2014-4-13T3:4:43Z</time></trkpt>
<trkpt lat="46.92860057" lon="7.16559959"><ele></ele><time>2014-4-13T3:4:46Z</time></trkpt>
<trkpt lat="46.92850954" lon="7.16515367"><ele></ele><time>2014-4-13T3:4:49Z</time></trkpt>
<trkpt lat="46.92844600" lon="7.16490448"><ele></ele><time>2014-4-13T3:4:52Z</time></trkpt>
<trkpt lat="46.92835489" lon="7.16444540"><ele></ele><time>2014-4-13T3:4:55Z</time></trkpt>
<trkpt lat="46.92824593" lon="7.16401264"><ele></ele><time>2014-4-13T3:4:58Z</time></trkpt>
<trkpt lat="46.92820025" lon="7.16372397"><ele></ele><time>2014-4-13T3:5:1Z</time></trkpt>
<trkpt lat="46.92818181" lon="7.16354024"><ele></ele><time>2014-4-13T3:5:4Z</time></trkpt>
<trkpt lat="46.92809103" lon="7.16318619"><ele></ele><time>2014-4-13T3:5:7Z</time></trkpt>
<trkpt lat="46.92804543" lon="7.16292383"><ele></ele><time>2014-4-13T3:5:10Z</time></trkpt>
<trkpt lat="46.92799984" lon="7.16264832"><ele></ele><time>2014-4-13T3:5:13Z</time></trkpt>
<trkpt lat="46.92789087" lon="7.16225496"><ele></ele><time>2014-4-13T3:5:16Z</time></trkpt>
<trkpt lat="46.92781820" lon="7.16194022"><ele></ele><time>2014-4-13T3:5:19Z</time></trkpt>
<trkpt lat="46.92764604" lon="7.16141584"><ele></ele><time>2014-4-13T3:5:22Z</time></trkpt>
<trkpt lat="46.92731964" lon="7.16036710"><ele></ele><time>2014-4-13T3:5:25Z</time></trkpt>
<trkpt lat="46.92724714" lon="7.16015738"><ele></ele><time>2014-4-13T3:5:28Z</time></trkpt>
<trkpt lat="46.92683978" lon="7.15909598"><ele></ele><time>2014-4-13T3:5:31Z</time></trkpt>
<trkpt lat="46.92657743" lon="7.15846709"><ele></ele><time>2014-4-13T3:5:34Z</time></trkpt>
<trkpt lat="46.92655019" lon="7.15837531"><ele></ele><time>2014-4-13T3:5:37Z</time></trkpt>
<trkpt lat="46.92629680" lon="7.15777265"><ele></ele><time>2014-4-13T3:5:40Z</time></trkpt>
<trkpt lat="46.92622455" lon="7.15762856"><ele></ele><time>2014-4-13T3:5:43Z</time></trkpt>
<trkpt lat="46.92602623" lon="7.15748523"><ele></ele><time>2014-4-13T3:5:46Z</time></trkpt>
<trkpt lat="46.92580168" lon="7.15761767"><ele></ele><time>2014-4-13T3:5:49Z</time></trkpt>
<trkpt lat="46.92574837" lon="7.15788052"><ele></ele><time>2014-4-13T3:5:52Z</time></trkpt>
<trkpt lat="46.92569632" lon="7.15865551"><ele></ele><time>2014-4-13T3:5:55Z</time></trkpt>
<trkpt lat="46.92570571" lon="7.15881301"><ele></ele><time>2014-4-13T3:5:58Z</time></trkpt>
<trkpt lat="46.92569766" lon="7.15920696"><ele></ele><time>2014-4-13T3:6:1Z</time></trkpt>
<trkpt lat="46.92534822" lon="7.15978649"><ele></ele><time>2014-4-13T3:6:4Z</time></trkpt>
<trkpt lat="46.92504295" lon="7.16002436"><ele></ele><time>2014-4-13T3:6:7Z</time></trkpt>
<trkpt lat="46.92476492" lon="7.16035411"><ele></ele><time>2014-4-13T3:6:10Z</time></trkpt>
<trkpt lat="46.92468479" lon="7.16069584"><ele></ele><time>2014-4-13T3:6:13Z</time></trkpt>
<trkpt lat="46.92463232" lon="7.16131325"><ele></ele><time>2014-4-13T3:6:16Z</time></trkpt>
<trkpt lat="46.92456996" lon="7.16157611"><ele></ele><time>2014-4-13T3:6:19Z</time></trkpt>
<trkpt lat="46.92421189" lon="7.16227381"><ele></ele><time>2014-4-13T3:6:22Z</time></trkpt>
<trkpt lat="46.92402380" lon="7.16261622"><ele></ele><time>2014-4-13T3:6:25Z</time></trkpt>
<trkpt lat="46.92395213" lon="7.16272158"><ele></ele><time>2014-4-13T3:6:28Z</time></trkpt>
<trkpt lat="46.92339582" lon="7.16332843"><ele></ele><time>2014-4-13T3:6:31Z</time></trkpt>
<trkpt lat="46.92326121" lon="7.16344728"><ele></ele><time>2014-4-13T3:6:34Z</time></trkpt>
<trkpt lat="46.92305476" lon="7.16363210"><ele></ele><time>2014-4-13T3:6:37Z</time></trkpt>
<trkpt lat="46.92265084" lon="7.16400183"><ele></ele><time>2014-4-13T3:6:40Z</time></trkpt>
<trkpt lat="46.92245353" lon="7.16425228"><ele></ele><time>2014-4-13T3:6:43Z</time></trkpt>
<trkpt lat="46.92243576" lon="7.16434423"><ele></ele><time>2014-4-13T3:6:46Z</time></trkpt>
<trkpt lat="46.92255386" lon="7.16482946"><ele></ele><time>2014-4-13T3:6:49Z</time></trkpt>
<trkpt lat="46.92255462" lon="7.16513137"><ele></ele><time>2014-4-13T3:6:52Z</time></trkpt>
<trkpt lat="46.92236728" lon="7.16580193"><ele></ele><time>2014-4-13T3:6:55Z</time></trkpt>
<trkpt lat="46.92215228" lon="7.16615749"><ele></ele><time>2014-4-13T3:6:58Z</time></trkpt>
<trkpt lat="46.92197283" lon="7.16636846"><ele></ele><time>2014-4-13T3:7:1Z</time></trkpt>
<trkpt lat="46.92151610" lon="7.16719793"><ele></ele><time>2014-4-13T3:7:4Z</time></trkpt>
<trkpt lat="46.92139992" lon="7.16752675"><ele></ele><time>2014-4-13T3:7:7Z</time></trkpt>
<trkpt lat="46.92136439" lon="7.16772381"><ele></ele><time>2014-4-13T3:7:10Z</time></trkpt>
<trkpt lat="46.92156505" lon="7.16887817"><ele></ele><time>2014-4-13T3:7:13Z</time></trkpt>
<trkpt lat="46.92171919" lon="7.16940254"><ele></ele><time>2014-4-13T3:7:16Z</time></trkpt>
<trkpt lat="46.92199110" lon="7.17028088"><ele></ele><time>2014-4-13T3:7:19Z</time></trkpt>
<trkpt lat="46.92216335" lon="7.17085764"><ele></ele><time>2014-4-13T3:7:22Z</time></trkpt>
<trkpt lat="46.92250768" lon="7.17191946"><ele></ele><time>2014-4-13T3:7:25Z</time></trkpt>
<trkpt lat="46.92267071" lon="7.17241751"><ele></ele><time>2014-4-13T3:7:28Z</time></trkpt>
<trkpt lat="46.92274321" lon="7.17264039"><ele></ele><time>2014-4-13T3:7:31Z</time></trkpt>
<trkpt lat="46.92281563" lon="7.17285010"><ele></ele><time>2014-4-13T3:7:34Z</time></trkpt>
<trkpt lat="46.92289735" lon="7.17316476"><ele></ele><time>2014-4-13T3:7:37Z</time></trkpt>
<trkpt lat="46.92300632" lon="7.17359751"><ele></ele><time>2014-4-13T3:7:40Z</time></trkpt>
<trkpt lat="46.92321452" lon="7.17418727"><ele></ele><time>2014-4-13T3:7:43Z</time></trkpt>
<trkpt lat="46.92337763" lon="7.17471164"><ele></ele><time>2014-4-13T3:7:46Z</time></trkpt>
<trkpt lat="46.92355860" lon="7.17517029"><ele></ele><time>2014-4-13T3:7:49Z</time></trkpt>
<trkpt lat="46.92365834" lon="7.17551119"><ele></ele><time>2014-4-13T3:7:52Z</time></trkpt>
<trkpt lat="46.92374024" lon="7.17590463"><ele></ele><time>2014-4-13T3:7:55Z</time></trkpt>
<trkpt lat="46.92380394" lon="7.17621946"><ele></ele><time>2014-4-13T3:7:58Z</time></trkpt>
<trkpt lat="46.92381333" lon="7.17640319"><ele></ele><time>2014-4-13T3:8:1Z</time></trkpt>
<trkpt lat="46.92387686" lon="7.17665238"><ele></ele><time>2014-4-13T3:8:4Z</time></trkpt>
<trkpt lat="46.92403997" lon="7.17717675"><ele></ele><time>2014-4-13T3:8:7Z</time></trkpt>
<trkpt lat="46.92413033" lon="7.17736015"><ele></ele><time>2014-4-13T3:8:10Z</time></trkpt>
<trkpt lat="46.92423938" lon="7.17783230"><ele></ele><time>2014-4-13T3:8:13Z</time></trkpt>
<trkpt lat="46.92432093" lon="7.17810757"><ele></ele><time>2014-4-13T3:8:16Z</time></trkpt>
<trkpt lat="46.92434826" lon="7.17825190"><ele></ele><time>2014-4-13T3:8:19Z</time></trkpt>
<trkpt lat="46.92440266" lon="7.17843547"><ele></ele><time>2014-4-13T3:8:22Z</time></trkpt>
<trkpt lat="46.92450215" lon="7.17868441"><ele></ele><time>2014-4-13T3:8:25Z</time></trkpt>
<trkpt lat="46.92453828" lon="7.17876303"><ele></ele><time>2014-4-13T3:8:28Z</time></trkpt>
<trkpt lat="46.92469200" lon="7.17911675"><ele></ele><time>2014-4-13T3:8:31Z</time></trkpt>
<trkpt lat="46.92489132" lon="7.17973290"><ele></ele><time>2014-4-13T3:8:34Z</time></trkpt>
<trkpt lat="46.92493667" lon="7.17990339"><ele></ele><time>2014-4-13T3:8:37Z</time></trkpt>
<trkpt lat="46.92505427" lon="7.18017857"><ele></ele><time>2014-4-13T3:8:40Z</time></trkpt>
<trkpt lat="46.92523540" lon="7.18072909"><ele></ele><time>2014-4-13T3:8:43Z</time></trkpt>
<trkpt lat="46.92545258" lon="7.18130576"><ele></ele><time>2014-4-13T3:8:46Z</time></trkpt>
<trkpt lat="46.92558819" lon="7.18162025"><ele></ele><time>2014-4-13T3:8:49Z</time></trkpt>
<trkpt lat="46.92575105" lon="7.18202652"><ele></ele><time>2014-4-13T3:8:52Z</time></trkpt>
<trkpt lat="46.92583244" lon="7.18222308"><ele></ele><time>2014-4-13T3:8:55Z</time></trkpt>
<trkpt lat="46.92605817" lon="7.18258962"><ele></ele><time>2014-4-13T3:8:58Z</time></trkpt>
<trkpt lat="46.92608566" lon="7.18283898"><ele></ele><time>2014-4-13T3:9:1Z</time></trkpt>
<trkpt lat="46.92595113" lon="7.18301031"><ele></ele><time>2014-4-13T3:9:4Z</time></trkpt>
<trkpt lat="46.92576271" lon="7.18320812"><ele></ele><time>2014-4-13T3:9:7Z</time></trkpt>
<trkpt lat="46.92552030" lon="7.18344566"><ele></ele><time>2014-4-13T3:9:10Z</time></trkpt>
<trkpt lat="46.92510741" lon="7.18382838"><ele></ele><time>2014-4-13T3:9:13Z</time></trkpt>
<trkpt lat="46.92480222" lon="7.18413181"><ele></ele><time>2014-4-13T3:9:16Z</time></trkpt>
<trkpt lat="46.92445211" lon="7.18443540"><ele></ele><time>2014-4-13T3:9:19Z</time></trkpt>
<trkpt lat="46.92414693" lon="7.18475198"><ele></ele><time>2014-4-13T3:9:22Z</time></trkpt>
<trkpt lat="46.92411097" lon="7.18476531"><ele></ele><time>2014-4-13T3:9:25Z</time></trkpt>
<trkpt lat="46.92374200" lon="7.18468828"><ele></ele><time>2014-4-13T3:9:28Z</time></trkpt>
<trkpt lat="46.92334536" lon="7.18428310"><ele></ele><time>2014-4-13T3:9:31Z</time></trkpt>
<trkpt lat="46.92323707" lon="7.18412611"><ele></ele><time>2014-4-13T3:9:34Z</time></trkpt>
<trkpt lat="46.92315593" lon="7.18406081"><ele></ele><time>2014-4-13T3:9:37Z</time></trkpt>
<trkpt lat="46.92256124" lon="7.18360408"><ele></ele><time>2014-4-13T3:9:40Z</time></trkpt>
<trkpt lat="46.92248991" lon="7.18388018"><ele></ele><time>2014-4-13T3:9:43Z</time></trkpt>
<trkpt lat="46.92247314" lon="7.18443163"><ele></ele><time>2014-4-13T3:9:46Z</time></trkpt>
<trkpt lat="46.92248303" lon="7.18483865"><ele></ele><time>2014-4-13T3:9:49Z</time></trkpt>
<trkpt lat="46.92251966" lon="7.18512733"><ele></ele><time>2014-4-13T3:9:52Z</time></trkpt>
<trkpt lat="46.92258320" lon="7.18540267"><ele></ele><time>2014-4-13T3:9:55Z</time></trkpt>
<trkpt lat="46.92261111" lon="7.18580961"><ele></ele><time>2014-4-13T3:9:58Z</time></trkpt>
<trkpt lat="46.92263927" lon="7.18636089"><ele></ele><time>2014-4-13T3:10:1Z</time></trkpt>
<trkpt lat="46.92268487" lon="7.18664948"><ele></ele><time>2014-4-13T3:10:4Z</time></trkpt>
<trkpt lat="46.92270457" lon="7.18739773"><ele></ele><time>2014-4-13T3:10:7Z</time></trkpt>
<trkpt lat="46.92268739" lon="7.18777861"><ele></ele><time>2014-4-13T3:10:10Z</time></trkpt>
<trkpt lat="46.92266090" lon="7.18800190"><ele></ele><time>2014-4-13T3:10:13Z</time></trkpt>
<trkpt lat="46.92259904" lon="7.18851420"><ele></ele><time>2014-4-13T3:10:16Z</time></trkpt>
<trkpt lat="46.92256350" lon="7.18872450"><ele></ele><time>2014-4-13T3:10:19Z</time></trkpt>
<trkpt lat="46.92252863" lon="7.18922356"><ele></ele><time>2014-4-13T3:10:22Z</time></trkpt>
<trkpt lat="46.92247524" lon="7.18947326"><ele></ele><time>2014-4-13T3:10:25Z</time></trkpt>
<trkpt lat="46.92237834" lon="7.19043215"><ele></ele><time>2014-4-13T3:10:28Z</time></trkpt>
<trkpt lat="46.92236057" lon="7.19053726"><ele></ele><time>2014-4-13T3:10:31Z</time></trkpt>
<trkpt lat="46.92219964" lon="7.19099751"><ele></ele><time>2014-4-13T3:10:34Z</time></trkpt>
<trkpt lat="46.92215488" lon="7.19107646"><ele></ele><time>2014-4-13T3:10:37Z</time></trkpt>
<trkpt lat="46.92195699" lon="7.19107739"><ele></ele><time>2014-4-13T3:10:40Z</time></trkpt>
<trkpt lat="46.92158600" lon="7.19009444"><ele></ele><time>2014-4-13T3:10:43Z</time></trkpt>
<trkpt lat="46.92154082" lon="7.18997651"><ele></ele><time>2014-4-13T3:10:46Z</time></trkpt>
<trkpt lat="46.92144142" lon="7.18979311"><ele></ele><time>2014-4-13T3:10:49Z</time></trkpt>
<trkpt lat="46.92081956" lon="7.18923144"><ele></ele><time>2014-4-13T3:10:52Z</time></trkpt>
<trkpt lat="46.92003535" lon="7.18851303"><ele></ele><time>2014-4-13T3:10:55Z</time></trkpt>
<trkpt lat="46.91961156" lon="7.18801615"><ele></ele><time>2014-4-13T3:10:58Z</time></trkpt>
<trkpt lat="46.91940453" lon="7.18797768"><ele></ele><time>2014-4-13T3:11:1Z</time></trkpt>
<trkpt lat="46.91933345" lon="7.18838504"><ele></ele><time>2014-4-13T3:11:4Z</time></trkpt>
<trkpt lat="46.91895886" lon="7.18984399"><ele></ele><time>2014-4-13T3:11:7Z</time></trkpt>
<trkpt lat="46.91855745" lon="7.19139498"><ele></ele><time>2014-4-13T3:11:10Z</time></trkpt>
<trkpt lat="46.91851278" lon="7.19155272"><ele></ele><time>2014-4-13T3:11:13Z</time></trkpt>
<trkpt lat="46.91836894" lon="7.19159279"><ele></ele><time>2014-4-13T3:11:16Z</time></trkpt>
<trkpt lat="46.91758482" lon="7.19087438"><ele></ele><time>2014-4-13T3:11:19Z</time></trkpt>
<trkpt lat="46.91644161" lon="7.19049887"><ele></ele><time>2014-4-13T3:11:22Z</time></trkpt>
<trkpt lat="46.91511048" lon="7.19059694"><ele></ele><time>2014-4-13T3:11:25Z</time></trkpt>
<trkpt lat="46.91429215" lon="7.19071889"><ele></ele><time>2014-4-13T3:11:28Z</time></trkpt>
<trkpt lat="46.91409451" lon="7.19081168"><ele></ele><time>2014-4-13T3:11:31Z</time></trkpt>
<trkpt lat="46.91413105" lon="7.19108719"><ele></ele><time>2014-4-13T3:11:34Z</time></trkpt>
<trkpt lat="46.91438561" lon="7.19233308"><ele></ele><time>2014-4-13T3:11:37Z</time></trkpt>
<trkpt lat="46.91450380" lon="7.19289701"><ele></ele><time>2014-4-13T3:11:40Z</time></trkpt>
<trkpt lat="46.91461243" lon="7.19323782"><ele></ele><time>2014-4-13T3:11:43Z</time></trkpt>
<trkpt lat="46.91484788" lon="7.19394559"><ele></ele><time>2014-4-13T3:11:46Z</time></trkpt>
<trkpt lat="46.91528231" lon="7.19521696"><ele></ele><time>2014-4-13T3:11:49Z</time></trkpt>
<trkpt lat="46.91543620" lon="7.19564946"><ele></ele><time>2014-4-13T3:11:52Z</time></trkpt>
<trkpt lat="46.91535540" lon="7.19575491"><ele></ele><time>2014-4-13T3:11:55Z</time></trkpt>
<trkpt lat="46.91466364" lon="7.19615179"><ele></ele><time>2014-4-13T3:11:58Z</time></trkpt>
<trkpt lat="46.91449307" lon="7.19631013"><ele></ele><time>2014-4-13T3:12:1Z</time></trkpt>
<trkpt lat="46.91436726" lon="7.19638942"><ele></ele><time>2014-4-13T3:12:4Z</time></trkpt>
<trkpt lat="46.91404397" lon="7.19661405"><ele></ele><time>2014-4-13T3:12:7Z</time></trkpt>
<trkpt lat="46.91402662" lon="7.19694229"><ele></ele><time>2014-4-13T3:12:10Z</time></trkpt>
<trkpt lat="46.91383224" lon="7.19861029"><ele></ele><time>2014-4-13T3:12:13Z</time></trkpt>
<trkpt lat="46.91374507" lon="7.19994963"><ele></ele><time>2014-4-13T3:12:16Z</time></trkpt>
<trkpt lat="46.91373903" lon="7.20138051"><ele></ele><time>2014-4-13T3:12:19Z</time></trkpt>
<trkpt lat="46.91375001" lon="7.20231249"><ele></ele><time>2014-4-13T3:12:22Z</time></trkpt>
<trkpt lat="46.91378639" lon="7.20249614"><ele></ele><time>2014-4-13T3:12:25Z</time></trkpt>
<trkpt lat="46.91430163" lon="7.20375409"><ele></ele><time>2014-4-13T3:12:28Z</time></trkpt>
<trkpt lat="46.91482499" lon="7.20452632"><ele></ele><time>2014-4-13T3:12:31Z</time></trkpt>
<trkpt lat="46.91498735" lon="7.20474877"><ele></ele><time>2014-4-13T3:12:34Z</time></trkpt>
<trkpt lat="46.91530326" lon="7.20528555"><ele></ele><time>2014-4-13T3:12:37Z</time></trkpt>
<trkpt lat="46.91546579" lon="7.20557372"><ele></ele><time>2014-4-13T3:12:40Z</time></trkpt>
<trkpt lat="46.91559210" lon="7.20575695"><ele></ele><time>2014-4-13T3:12:43Z</time></trkpt>
<trkpt lat="46.91644823" lon="7.20654091"><ele></ele><time>2014-4-13T3:12:46Z</time></trkpt>
<trkpt lat="46.91678158" lon="7.20681508"><ele></ele><time>2014-4-13T3:12:49Z</time></trkpt>
<trkpt lat="46.91701644" lon="7.20727357"><ele></ele><time>2014-4-13T3:12:52Z</time></trkpt>
<trkpt lat="46.91706187" lon="7.20749653"><ele></ele><time>2014-4-13T3:12:55Z</time></trkpt>
<trkpt lat="46.91699046" lon="7.20779878"><ele></ele><time>2014-4-13T3:12:58Z</time></trkpt>
<trkpt lat="46.91664889" lon="7.20789216"><ele></ele><time>2014-4-13T3:13:1Z</time></trkpt>
<trkpt lat="46.91647782" lon="7.20784036"><ele></ele><time>2014-4-13T3:13:4Z</time></trkpt>
<trkpt lat="46.91636081" lon="7.20780155"><ele></ele><time>2014-4-13T3:13:7Z</time></trkpt>
<trkpt lat="46.91623483" lon="7.20776265"><ele></ele><time>2014-4-13T3:13:10Z</time></trkpt>
<trkpt lat="46.91619887" lon="7.20776282"><ele></ele><time>2014-4-13T3:13:13Z</time></trkpt>
<trkpt lat="46.91587508" lon="7.20779048"><ele></ele><time>2014-4-13T3:13:16Z</time></trkpt>
<trkpt lat="46.91555162" lon="7.20797564"><ele></ele><time>2014-4-13T3:13:19Z</time></trkpt>
<trkpt lat="46.91529153" lon="7.20837059"><ele></ele><time>2014-4-13T3:13:22Z</time></trkpt>
<trkpt lat="46.91516630" lon="7.20873864"><ele></ele><time>2014-4-13T3:13:25Z</time></trkpt>
<trkpt lat="46.91509590" lon="7.20951347"><ele></ele><time>2014-4-13T3:13:28Z</time></trkpt>
<trkpt lat="46.91514149" lon="7.20981522"><ele></ele><time>2014-4-13T3:13:31Z</time></trkpt>
<trkpt lat="46.91526806" lon="7.21014286"><ele></ele><time>2014-4-13T3:13:34Z</time></trkpt>
<trkpt lat="46.91543058" lon="7.21044411"><ele></ele><time>2014-4-13T3:13:37Z</time></trkpt>
<trkpt lat="46.91552111" lon="7.21070630"><ele></ele><time>2014-4-13T3:13:40Z</time></trkpt>
<trkpt lat="46.91542346" lon="7.21136310"><ele></ele><time>2014-4-13T3:13:43Z</time></trkpt>
<trkpt lat="46.91536051" lon="7.21138959"><ele></ele><time>2014-4-13T3:13:46Z</time></trkpt>
<trkpt lat="46.91514476" lon="7.21146922"><ele></ele><time>2014-4-13T3:13:49Z</time></trkpt>
<trkpt lat="46.91411111" lon="7.21186744"><ele></ele><time>2014-4-13T3:13:52Z</time></trkpt>
<trkpt lat="46.91362646" lon="7.21239458"><ele></ele><time>2014-4-13T3:13:55Z</time></trkpt>
<trkpt lat="46.91345581" lon="7.21252651"><ele></ele><time>2014-4-13T3:13:58Z</time></trkpt>
<trkpt lat="46.91335707" lon="7.21263195"><ele></ele><time>2014-4-13T3:14:1Z</time></trkpt>
<trkpt lat="46.91297133" lon="7.21318491"><ele></ele><time>2014-4-13T3:14:4Z</time></trkpt>
<trkpt lat="46.91278291" lon="7.21344827"><ele></ele><time>2014-4-13T3:14:7Z</time></trkpt>
<trkpt lat="46.91244227" lon="7.21401413"><ele></ele><time>2014-4-13T3:14:10Z</time></trkpt>
<trkpt lat="46.91225359" lon="7.21415930"><ele></ele><time>2014-4-13T3:14:13Z</time></trkpt>
<trkpt lat="46.91170525" lon="7.21434538"><ele></ele><time>2014-4-13T3:14:16Z</time></trkpt>
<trkpt lat="46.91166032" lon="7.21435871"><ele></ele><time>2014-4-13T3:14:19Z</time></trkpt>
<trkpt lat="46.91115665" lon="7.21440012"><ele></ele><time>2014-4-13T3:14:22Z</time></trkpt>
<trkpt lat="46.91059892" lon="7.21436307"><ele></ele><time>2014-4-13T3:14:25Z</time></trkpt>
<trkpt lat="46.91015795" lon="7.21427305"><ele></ele><time>2014-4-13T3:14:28Z</time></trkpt>
<trkpt lat="46.90962696" lon="7.21413089"><ele></ele><time>2014-4-13T3:14:31Z</time></trkpt>
<trkpt lat="46.90915891" lon="7.21397532"><ele></ele><time>2014-4-13T3:14:34Z</time></trkpt>
<trkpt lat="46.90911382" lon="7.21393618"><ele></ele><time>2014-4-13T3:14:37Z</time></trkpt>
<trkpt lat="46.90886169" lon="7.21380592"><ele></ele><time>2014-4-13T3:14:40Z</time></trkpt>
<trkpt lat="46.90886144" lon="7.21368782"><ele></ele><time>2014-4-13T3:14:43Z</time></trkpt>
<trkpt lat="46.90887032" lon="7.21363527"><ele></ele><time>2014-4-13T3:14:46Z</time></trkpt>
<trkpt lat="46.90887015" lon="7.21354340"><ele></ele><time>2014-4-13T3:14:49Z</time></trkpt>
<trkpt lat="46.90891382" lon="7.21288693"><ele></ele><time>2014-4-13T3:14:52Z</time></trkpt>
<trkpt lat="46.90891273" lon="7.21232249"><ele></ele><time>2014-4-13T3:14:55Z</time></trkpt>
<trkpt lat="46.90874074" lon="7.21175881"><ele></ele><time>2014-4-13T3:14:58Z</time></trkpt>
<trkpt lat="46.90855114" lon="7.21140526"><ele></ele><time>2014-4-13T3:15:1Z</time></trkpt>
<trkpt lat="46.90853303" lon="7.21137903"><ele></ele><time>2014-4-13T3:15:4Z</time></trkpt>
<trkpt lat="46.90841552" lon="7.21105138"><ele></ele><time>2014-4-13T3:15:7Z</time></trkpt>
<trkpt lat="46.90835224" lon="7.21090729"><ele></ele><time>2014-4-13T3:15:10Z</time></trkpt>
<trkpt lat="46.90814462" lon="7.21054067"><ele></ele><time>2014-4-13T3:15:13Z</time></trkpt>
<trkpt lat="46.90808142" lon="7.21040966"><ele></ele><time>2014-4-13T3:15:16Z</time></trkpt>
<trkpt lat="46.90792794" lon="7.21014781"><ele></ele><time>2014-4-13T3:15:19Z</time></trkpt>
<trkpt lat="46.90784681" lon="7.21005628"><ele></ele><time>2014-4-13T3:15:22Z</time></trkpt>
<trkpt lat="46.90783775" lon="7.21001697"><ele></ele><time>2014-4-13T3:15:25Z</time></trkpt>
<trkpt lat="46.90782845" lon="7.20987255"><ele></ele><time>2014-4-13T3:15:28Z</time></trkpt>
<trkpt lat="46.90782803" lon="7.20967574"><ele></ele><time>2014-4-13T3:15:31Z</time></trkpt>
<trkpt lat="46.90780993" lon="7.20962327"><ele></ele><time>2014-4-13T3:15:34Z</time></trkpt>
<trkpt lat="46.90774681" lon="7.20951858"><ele></ele><time>2014-4-13T3:15:37Z</time></trkpt>
<trkpt lat="46.90754816" lon="7.20913871"><ele></ele><time>2014-4-13T3:15:40Z</time></trkpt>
<trkpt lat="46.90741262" lon="7.20886370"><ele></ele><time>2014-4-13T3:15:43Z</time></trkpt>
<trkpt lat="46.90723225" lon="7.20864133"><ele></ele><time>2014-4-13T3:15:46Z</time></trkpt>
<trkpt lat="46.90716913" lon="7.20856288"><ele></ele><time>2014-4-13T3:15:49Z</time></trkpt>
<trkpt lat="46.90699814" lon="7.20849800"><ele></ele><time>2014-4-13T3:15:52Z</time></trkpt>
<trkpt lat="46.90693511" lon="7.20845886"><ele></ele><time>2014-4-13T3:15:55Z</time></trkpt>
<trkpt lat="46.90681810" lon="7.20841996"><ele></ele><time>2014-4-13T3:15:58Z</time></trkpt>
<trkpt lat="46.90663814" lon="7.20843388"><ele></ele><time>2014-4-13T3:16:1Z</time></trkpt>
<trkpt lat="46.90655725" lon="7.20844737"><ele></ele><time>2014-4-13T3:16:4Z</time></trkpt>
<trkpt lat="46.90647611" lon="7.20836892"><ele></ele><time>2014-4-13T3:16:7Z</time></trkpt>
<trkpt lat="46.90643094" lon="7.20827722"><ele></ele><time>2014-4-13T3:16:10Z</time></trkpt>
<trkpt lat="46.90613338" lon="7.20792417"><ele></ele><time>2014-4-13T3:16:13Z</time></trkpt>
<trkpt lat="46.90598896" lon="7.20767540"><ele></ele><time>2014-4-13T3:16:16Z</time></trkpt>
<trkpt lat="46.90586247" lon="7.20737407"><ele></ele><time>2014-4-13T3:16:19Z</time></trkpt>
<trkpt lat="46.90579928" lon="7.20725622"><ele></ele><time>2014-4-13T3:16:22Z</time></trkpt>
<trkpt lat="46.90574504" lon="7.20712521"><ele></ele><time>2014-4-13T3:16:25Z</time></trkpt>
<trkpt lat="46.90553751" lon="7.20682422"><ele></ele><time>2014-4-13T3:16:28Z</time></trkpt>
<trkpt lat="46.90542041" lon="7.20673285"><ele></ele><time>2014-4-13T3:16:31Z</time></trkpt>
<trkpt lat="46.90514113" lon="7.20652406"><ele></ele><time>2014-4-13T3:16:34Z</time></trkpt>
<trkpt lat="46.90479906" lon="7.20643362"><ele></ele><time>2014-4-13T3:16:37Z</time></trkpt>
<trkpt lat="46.90451047" lon="7.20604118"><ele></ele><time>2014-4-13T3:16:40Z</time></trkpt>
<trkpt lat="46.90441115" lon="7.20588410"><ele></ele><time>2014-4-13T3:16:43Z</time></trkpt>
<trkpt lat="46.90422172" lon="7.20562242"><ele></ele><time>2014-4-13T3:16:46Z</time></trkpt>
<trkpt lat="46.90405928" lon="7.20536065"><ele></ele><time>2014-4-13T3:16:49Z</time></trkpt>
<trkpt lat="46.90386088" lon="7.20509897"><ele></ele><time>2014-4-13T3:16:52Z</time></trkpt>
<trkpt lat="46.90373464" lon="7.20496830"><ele></ele><time>2014-4-13T3:16:55Z</time></trkpt>
<trkpt lat="46.90344614" lon="7.20465456"><ele></ele><time>2014-4-13T3:16:58Z</time></trkpt>
<trkpt lat="46.90321161" lon="7.20431434"><ele></ele><time>2014-4-13T3:17:1Z</time></trkpt>
<trkpt lat="46.90319359" lon="7.20428819"><ele></ele><time>2014-4-13T3:17:4Z</time></trkpt>
<trkpt lat="46.90282454" lon="7.20419792"><ele></ele><time>2014-4-13T3:17:7Z</time></trkpt>
<trkpt lat="46.90247376" lon="7.20419942"><ele></ele><time>2014-4-13T3:17:10Z</time></trkpt>
<trkpt lat="46.90233026" lon="7.20441006"><ele></ele><time>2014-4-13T3:17:13Z</time></trkpt>
<trkpt lat="46.90227720" lon="7.20484341"><ele></ele><time>2014-4-13T3:17:16Z</time></trkpt>
<trkpt lat="46.90231400" lon="7.20525010"><ele></ele><time>2014-4-13T3:17:19Z</time></trkpt>
<trkpt lat="46.90220637" lon="7.20539493"><ele></ele><time>2014-4-13T3:17:22Z</time></trkpt>
<trkpt lat="46.90205374" lon="7.20553994"><ele></ele><time>2014-4-13T3:17:25Z</time></trkpt>
<trkpt lat="46.90191912" lon="7.20571110"><ele></ele><time>2014-4-13T3:17:28Z</time></trkpt>
<trkpt lat="46.90173062" lon="7.20590883"><ele></ele><time>2014-4-13T3:17:31Z</time></trkpt>
<trkpt lat="46.90156038" lon="7.20622449"><ele></ele><time>2014-4-13T3:17:34Z</time></trkpt>
<trkpt lat="46.90149768" lon="7.20635600"><ele></ele><time>2014-4-13T3:17:37Z</time></trkpt>
<trkpt lat="46.90141655" lon="7.20626447"><ele></ele><time>2014-4-13T3:17:40Z</time></trkpt>
<trkpt lat="46.90131730" lon="7.20612056"><ele></ele><time>2014-4-13T3:17:43Z</time></trkpt>
<trkpt lat="46.90125410" lon="7.20602894"><ele></ele><time>2014-4-13T3:17:46Z</time></trkpt>
<trkpt lat="46.90088429" lon="7.20554497"><ele></ele><time>2014-4-13T3:17:49Z</time></trkpt>
<trkpt lat="46.90071314" lon="7.20538823"><ele></ele><time>2014-4-13T3:17:52Z</time></trkpt>
<trkpt lat="46.90065019" lon="7.20542788"><ele></ele><time>2014-4-13T3:17:55Z</time></trkpt>
<trkpt lat="46.90065044" lon="7.20555914"><ele></ele><time>2014-4-13T3:17:58Z</time></trkpt>
<trkpt lat="46.90066871" lon="7.20567715"><ele></ele><time>2014-4-13T3:18:1Z</time></trkpt>
<trkpt lat="46.90071439" lon="7.20601821"><ele></ele><time>2014-4-13T3:18:4Z</time></trkpt>
<trkpt lat="46.90075069" lon="7.20617554"><ele></ele><time>2014-4-13T3:18:7Z</time></trkpt>
<trkpt lat="46.90076946" lon="7.20655600"><ele></ele><time>2014-4-13T3:18:10Z</time></trkpt>
<trkpt lat="46.90075211" lon="7.20689731"><ele></ele><time>2014-4-13T3:18:13Z</time></trkpt>
<trkpt lat="46.90067173" lon="7.20716016"><ele></ele><time>2014-4-13T3:18:16Z</time></trkpt>
<trkpt lat="46.90069981" lon="7.20769811"><ele></ele><time>2014-4-13T3:18:19Z</time></trkpt>
<trkpt lat="46.90072705" lon="7.20784237"><ele></ele><time>2014-4-13T3:18:22Z</time></trkpt>
<trkpt lat="46.90081757" lon="7.20813070"><ele></ele><time>2014-4-13T3:18:25Z</time></trkpt>
<trkpt lat="46.90101648" lon="7.20860227"><ele></ele><time>2014-4-13T3:18:28Z</time></trkpt>
<trkpt lat="46.90108001" lon="7.20889078"><ele></ele><time>2014-4-13T3:18:31Z</time></trkpt>
<trkpt lat="46.90111698" lon="7.20937617"><ele></ele><time>2014-4-13T3:18:34Z</time></trkpt>
<trkpt lat="46.90113508" lon="7.20945488"><ele></ele><time>2014-4-13T3:18:37Z</time></trkpt>
<trkpt lat="46.90119862" lon="7.20973014"><ele></ele><time>2014-4-13T3:18:40Z</time></trkpt>
<trkpt lat="46.90143364" lon="7.21029349"><ele></ele><time>2014-4-13T3:18:43Z</time></trkpt>
<trkpt lat="46.90141604" lon="7.21051670"><ele></ele><time>2014-4-13T3:18:46Z</time></trkpt>
<trkpt lat="46.90124589" lon="7.21088491"><ele></ele><time>2014-4-13T3:18:49Z</time></trkpt>
<trkpt lat="46.90120105" lon="7.21096379"><ele></ele><time>2014-4-13T3:18:52Z</time></trkpt>
<trkpt lat="46.90096795" lon="7.21134542"><ele></ele><time>2014-4-13T3:18:55Z</time></trkpt>
<trkpt lat="46.90077064" lon="7.21164809"><ele></ele><time>2014-4-13T3:18:58Z</time></trkpt>
<trkpt lat="46.90072588" lon="7.21175328"><ele></ele><time>2014-4-13T3:19:1Z</time></trkpt>
<trkpt lat="46.90066377" lon="7.21217346"><ele></ele><time>2014-4-13T3:19:4Z</time></trkpt>
<trkpt lat="46.90066393" lon="7.21225225"><ele></ele><time>2014-4-13T3:19:7Z</time></trkpt>
<trkpt lat="46.90065513" lon="7.21238351"><ele></ele><time>2014-4-13T3:19:10Z</time></trkpt>
<trkpt lat="46.90064633" lon="7.21244914"><ele></ele><time>2014-4-13T3:19:13Z</time></trkpt>
<trkpt lat="46.90051264" lon="7.21310587"><ele></ele><time>2014-4-13T3:19:16Z</time></trkpt>
<trkpt lat="46.90049479" lon="7.21317158"><ele></ele><time>2014-4-13T3:19:19Z</time></trkpt>
<trkpt lat="46.90049504" lon="7.21330284"><ele></ele><time>2014-4-13T3:19:22Z</time></trkpt>
<trkpt lat="46.90049546" lon="7.21351281"><ele></ele><time>2014-4-13T3:19:25Z</time></trkpt>
<trkpt lat="46.90047744" lon="7.21348666"><ele></ele><time>2014-4-13T3:19:28Z</time></trkpt>
<trkpt lat="46.90001769" lon="7.21298986"><ele></ele><time>2014-4-13T3:19:31Z</time></trkpt>
<trkpt lat="46.89965702" lon="7.21254520"><ele></ele><time>2014-4-13T3:19:34Z</time></trkpt>
<trkpt lat="46.89944898" lon="7.21198177"><ele></ele><time>2014-4-13T3:19:37Z</time></trkpt>
<trkpt lat="46.89938569" lon="7.21181137"><ele></ele><time>2014-4-13T3:19:40Z</time></trkpt>
<trkpt lat="46.89914212" lon="7.21144499"><ele></ele><time>2014-4-13T3:19:43Z</time></trkpt>
<trkpt lat="46.89891606" lon="7.21084225"><ele></ele><time>2014-4-13T3:19:46Z</time></trkpt>
<trkpt lat="46.89879863" lon="7.21063279"><ele></ele><time>2014-4-13T3:19:49Z</time></trkpt>
<trkpt lat="46.89831147" lon="7.20991303"><ele></ele><time>2014-4-13T3:19:52Z</time></trkpt>
<trkpt lat="46.89827543" lon="7.20988696"><ele></ele><time>2014-4-13T3:19:55Z</time></trkpt>
<trkpt lat="46.89778894" lon="7.20950844"><ele></ele><time>2014-4-13T3:19:58Z</time></trkpt>
<trkpt lat="46.89757294" lon="7.20947005"><ele></ele><time>2014-4-13T3:20:1Z</time></trkpt>
<trkpt lat="46.89759943" lon="7.20919428"><ele></ele><time>2014-4-13T3:20:4Z</time></trkpt>
<trkpt lat="46.89788575" lon="7.20843195"><ele></ele><time>2014-4-13T3:20:7Z</time></trkpt>
<trkpt lat="46.89774125" lon="7.20817010"><ele></ele><time>2014-4-13T3:20:10Z</time></trkpt>
<trkpt lat="46.89714672" lon="7.20775276"><ele></ele><time>2014-4-13T3:20:13Z</time></trkpt>
<trkpt lat="46.89693055" lon="7.20759619"><ele></ele><time>2014-4-13T3:20:16Z</time></trkpt>
<trkpt lat="46.89684950" lon="7.20754405"><ele></ele><time>2014-4-13T3:20:19Z</time></trkpt>
<trkpt lat="46.89629101" lon="7.20715279"><ele></ele><time>2014-4-13T3:20:22Z</time></trkpt>
<trkpt lat="46.89567846" lon="7.20674861"><ele></ele><time>2014-4-13T3:20:25Z</time></trkpt>
<trkpt lat="46.89527311" lon="7.20646162"><ele></ele><time>2014-4-13T3:20:28Z</time></trkpt>
<trkpt lat="46.89503951" lon="7.20659388"><ele></ele><time>2014-4-13T3:20:31Z</time></trkpt>
<trkpt lat="46.89498578" lon="7.20669908"><ele></ele><time>2014-4-13T3:20:34Z</time></trkpt>
<trkpt lat="46.89476986" lon="7.20670000"><ele></ele><time>2014-4-13T3:20:37Z</time></trkpt>
<trkpt lat="46.89417517" lon="7.20621703"><ele></ele><time>2014-4-13T3:20:40Z</time></trkpt>
<trkpt lat="46.89410250" lon="7.20584990"><ele></ele><time>2014-4-13T3:20:43Z</time></trkpt>
<trkpt lat="46.89436125" lon="7.20481214"><ele></ele><time>2014-4-13T3:20:46Z</time></trkpt>
<trkpt lat="46.89442369" lon="7.20457569"><ele></ele><time>2014-4-13T3:20:49Z</time></trkpt>
<trkpt lat="46.89453911" lon="7.20382718"><ele></ele><time>2014-4-13T3:20:52Z</time></trkpt>
<trkpt lat="46.89442981" lon="7.20315848"><ele></ele><time>2014-4-13T3:20:55Z</time></trkpt>
<trkpt lat="46.89438312" lon="7.20234510"><ele></ele><time>2014-4-13T3:20:58Z</time></trkpt>
<trkpt lat="46.89442746" lon="7.20201686"><ele></ele><time>2014-4-13T3:21:1Z</time></trkpt>
<trkpt lat="46.89441816" lon="7.20188568"><ele></ele><time>2014-4-13T3:21:4Z</time></trkpt>
<trkpt lat="46.89426469" lon="7.20159760"><ele></ele><time>2014-4-13T3:21:7Z</time></trkpt>
<trkpt lat="46.89408397" lon="7.20121790"><ele></ele><time>2014-4-13T3:21:10Z</time></trkpt>
<trkpt lat="46.89399345" lon="7.20092956"><ele></ele><time>2014-4-13T3:21:13Z</time></trkpt>
<trkpt lat="46.89390276" lon="7.20057568"><ele></ele><time>2014-4-13T3:21:16Z</time></trkpt>
<trkpt lat="46.89384827" lon="7.20033973"><ele></ele><time>2014-4-13T3:21:19Z</time></trkpt>
<trkpt lat="46.89383017" lon="7.20030050"><ele></ele><time>2014-4-13T3:21:22Z</time></trkpt>
<trkpt lat="46.89378491" lon="7.20013009"><ele></ele><time>2014-4-13T3:21:25Z</time></trkpt>
<trkpt lat="46.89375716" lon="7.19978903"><ele></ele><time>2014-4-13T3:21:28Z</time></trkpt>
<trkpt lat="46.89376546" lon="7.19943465"><ele></ele><time>2014-4-13T3:21:31Z</time></trkpt>
<trkpt lat="46.89377384" lon="7.19917221"><ele></ele><time>2014-4-13T3:21:34Z</time></trkpt>
<trkpt lat="46.89383604" lon="7.19877826"><ele></ele><time>2014-4-13T3:21:37Z</time></trkpt>
<trkpt lat="46.89388901" lon="7.19829253"><ele></ele><time>2014-4-13T3:21:40Z</time></trkpt>
<trkpt lat="46.89396000" lon="7.19784603"><ele></ele><time>2014-4-13T3:21:43Z</time></trkpt>
<trkpt lat="46.89406679" lon="7.19728134"><ele></ele><time>2014-4-13T3:21:46Z</time></trkpt>
<trkpt lat="46.89417358" lon="7.19676903"><ele></ele><time>2014-4-13T3:21:49Z</time></trkpt>
<trkpt lat="46.89423577" lon="7.19640132"><ele></ele><time>2014-4-13T3:21:52Z</time></trkpt>
<trkpt lat="46.89430702" lon="7.19605984"><ele></ele><time>2014-4-13T3:21:55Z</time></trkpt>
<trkpt lat="46.89434281" lon="7.19596781"><ele></ele><time>2014-4-13T3:21:58Z</time></trkpt>
<trkpt lat="46.89436049" lon="7.19582339"><ele></ele><time>2014-4-13T3:22:1Z</time></trkpt>
<trkpt lat="46.89437776" lon="7.19548216"><ele></ele><time>2014-4-13T3:22:4Z</time></trkpt>
<trkpt lat="46.89435957" lon="7.19539038"><ele></ele><time>2014-4-13T3:22:7Z</time></trkpt>
<trkpt lat="46.89436837" lon="7.19528535"><ele></ele><time>2014-4-13T3:22:10Z</time></trkpt>
<trkpt lat="46.89434113" lon="7.19518050"><ele></ele><time>2014-4-13T3:22:13Z</time></trkpt>
<trkpt lat="46.89432294" lon="7.19508871"><ele></ele><time>2014-4-13T3:22:16Z</time></trkpt>
<trkpt lat="46.89416930" lon="7.19474824"><ele></ele><time>2014-4-13T3:22:19Z</time></trkpt>
<trkpt lat="46.89416930" lon="7.19472201"><ele></ele><time>2014-4-13T3:22:22Z</time></trkpt>
<trkpt lat="46.89408791" lon="7.19453869"><ele></ele><time>2014-4-13T3:22:25Z</time></trkpt>
<trkpt lat="46.89399747" lon="7.19431599"><ele></ele><time>2014-4-13T3:22:28Z</time></trkpt>
<trkpt lat="46.89387987" lon="7.19400158"><ele></ele><time>2014-4-13T3:22:31Z</time></trkpt>
<trkpt lat="46.89380712" lon="7.19362138"><ele></ele><time>2014-4-13T3:22:34Z</time></trkpt>
<trkpt lat="46.89381575" lon="7.19346388"><ele></ele><time>2014-4-13T3:22:37Z</time></trkpt>
<trkpt lat="46.89382388" lon="7.19307018"><ele></ele><time>2014-4-13T3:22:40Z</time></trkpt>
<trkpt lat="46.89382296" lon="7.19263718"><ele></ele><time>2014-4-13T3:22:43Z</time></trkpt>
<trkpt lat="46.89383117" lon="7.19226971"><ele></ele><time>2014-4-13T3:22:46Z</time></trkpt>
<trkpt lat="46.89374970" lon="7.19200761"><ele></ele><time>2014-4-13T3:22:49Z</time></trkpt>
<trkpt lat="46.89346991" lon="7.19160209"><ele></ele><time>2014-4-13T3:22:52Z</time></trkpt>
<trkpt lat="46.89324411" lon="7.19115702"><ele></ele><time>2014-4-13T3:22:55Z</time></trkpt>
<trkpt lat="46.89307295" lon="7.19106599"><ele></ele><time>2014-4-13T3:22:58Z</time></trkpt>
<trkpt lat="46.89289240" lon="7.19073876"><ele></ele><time>2014-4-13T3:23:1Z</time></trkpt>
<trkpt lat="46.89274815" lon="7.19059509"><ele></ele><time>2014-4-13T3:23:4Z</time></trkpt>
<trkpt lat="46.89264874" lon="7.19038554"><ele></ele><time>2014-4-13T3:23:7Z</time></trkpt>
<trkpt lat="46.89249476" lon="7.18990074"><ele></ele><time>2014-4-13T3:23:10Z</time></trkpt>
<trkpt lat="46.89221523" lon="7.18957401"><ele></ele><time>2014-4-13T3:23:13Z</time></trkpt>
<trkpt lat="46.89201641" lon="7.18918132"><ele></ele><time>2014-4-13T3:23:16Z</time></trkpt>
<trkpt lat="46.89176386" lon="7.18885442"><ele></ele><time>2014-4-13T3:23:19Z</time></trkpt>
<trkpt lat="46.89144820" lon="7.18848847"><ele></ele><time>2014-4-13T3:23:22Z</time></trkpt>
<trkpt lat="46.89111468" lon="7.18816199"><ele></ele><time>2014-4-13T3:23:25Z</time></trkpt>
<trkpt lat="46.89042938" lon="7.18741726"><ele></ele><time>2014-4-13T3:23:28Z</time></trkpt>
<trkpt lat="46.89039334" lon="7.18737803"><ele></ele><time>2014-4-13T3:23:31Z</time></trkpt>
<trkpt lat="46.89006904" lon="7.18715650"><ele></ele><time>2014-4-13T3:23:34Z</time></trkpt>
<trkpt lat="46.88982538" lon="7.18681653"><ele></ele><time>2014-4-13T3:23:37Z</time></trkpt>
<trkpt lat="46.88979831" lon="7.18676414"><ele></ele><time>2014-4-13T3:23:40Z</time></trkpt>
<trkpt lat="46.88975304" lon="7.18664629"><ele></ele><time>2014-4-13T3:23:43Z</time></trkpt>
<trkpt lat="46.88947317" lon="7.18617523"><ele></ele><time>2014-4-13T3:23:46Z</time></trkpt>
<trkpt lat="46.88913932" lon="7.18573065"><ele></ele><time>2014-4-13T3:23:49Z</time></trkpt>
<trkpt lat="46.88898593" lon="7.18548213"><ele></ele><time>2014-4-13T3:23:52Z</time></trkpt>
<trkpt lat="46.88885048" lon="7.18525968"><ele></ele><time>2014-4-13T3:23:55Z</time></trkpt>
<trkpt lat="46.88849852" lon="7.18473648"><ele></ele><time>2014-4-13T3:23:58Z</time></trkpt>
<trkpt lat="46.88858746" lon="7.18430313"><ele></ele><time>2014-4-13T3:24:1Z</time></trkpt>
<trkpt lat="46.88871318" lon="7.18419752"><ele></ele><time>2014-4-13T3:24:4Z</time></trkpt>
<trkpt lat="46.88939597" lon="7.18381380"><ele></ele><time>2014-4-13T3:24:7Z</time></trkpt>
<trkpt lat="46.88961122" lon="7.18352412"><ele></ele><time>2014-4-13T3:24:10Z</time></trkpt>
<trkpt lat="46.88988028" lon="7.18318172"><ele></ele><time>2014-4-13T3:24:13Z</time></trkpt>
<trkpt lat="46.88998824" lon="7.18315490"><ele></ele><time>2014-4-13T3:24:16Z</time></trkpt>
<trkpt lat="46.89022226" lon="7.18323251"><ele></ele><time>2014-4-13T3:24:19Z</time></trkpt>
<trkpt lat="46.89067204" lon="7.18323042"><ele></ele><time>2014-4-13T3:24:22Z</time></trkpt>
<trkpt lat="46.89088770" lon="7.18313755"><ele></ele><time>2014-4-13T3:24:25Z</time></trkpt>
<trkpt lat="46.89105836" lon="7.18303177"><ele></ele><time>2014-4-13T3:24:28Z</time></trkpt>
<trkpt lat="46.89139020" lon="7.18258409"><ele></ele><time>2014-4-13T3:24:31Z</time></trkpt>
<trkpt lat="46.89145239" lon="7.18225569"><ele></ele><time>2014-4-13T3:24:34Z</time></trkpt>
<trkpt lat="46.89147905" lon="7.18208503"><ele></ele><time>2014-4-13T3:24:37Z</time></trkpt>
<trkpt lat="46.89152364" lon="7.18191421"><ele></ele><time>2014-4-13T3:24:40Z</time></trkpt>
<trkpt lat="46.89153244" lon="7.18184858"><ele></ele><time>2014-4-13T3:24:43Z</time></trkpt>
<trkpt lat="46.89159472" lon="7.18150710"><ele></ele><time>2014-4-13T3:24:46Z</time></trkpt>
<trkpt lat="46.89158533" lon="7.18136285"><ele></ele><time>2014-4-13T3:24:49Z</time></trkpt>
<trkpt lat="46.89175615" lon="7.18132261"><ele></ele><time>2014-4-13T3:24:52Z</time></trkpt>
<trkpt lat="46.89187325" lon="7.18137458"><ele></ele><time>2014-4-13T3:24:55Z</time></trkpt>
<trkpt lat="46.89206226" lon="7.18143929"><ele></ele><time>2014-4-13T3:24:58Z</time></trkpt>
<trkpt lat="46.89222436" lon="7.18153032"><ele></ele><time>2014-4-13T3:25:1Z</time></trkpt>
<trkpt lat="46.89233241" lon="7.18156921"><ele></ele><time>2014-4-13T3:25:4Z</time></trkpt>
<trkpt lat="46.89318728" lon="7.18170944"><ele></ele><time>2014-4-13T3:25:7Z</time></trkpt>
<trkpt lat="46.89399705" lon="7.18179745"><ele></ele><time>2014-4-13T3:25:10Z</time></trkpt>
<trkpt lat="46.89422202" lon="7.18180952"><ele></ele><time>2014-4-13T3:25:13Z</time></trkpt>
<trkpt lat="46.89470750" lon="7.18170214"><ele></ele><time>2014-4-13T3:25:16Z</time></trkpt>
<trkpt lat="46.89511226" lon="7.18170022"><ele></ele><time>2014-4-13T3:25:19Z</time></trkpt>
<trkpt lat="46.89579623" lon="7.18184137"><ele></ele><time>2014-4-13T3:25:22Z</time></trkpt>
<trkpt lat="46.89651674" lon="7.18223155"><ele></ele><time>2014-4-13T3:25:25Z</time></trkpt>
<trkpt lat="46.89662444" lon="7.18211294"><ele></ele><time>2014-4-13T3:25:28Z</time></trkpt>
<trkpt lat="46.89671380" lon="7.18185009"><ele></ele><time>2014-4-13T3:25:31Z</time></trkpt>
<trkpt lat="46.89683014" lon="7.18158706"><ele></ele><time>2014-4-13T3:25:34Z</time></trkpt>
<trkpt lat="46.89692049" lon="7.18175721"><ele></ele><time>2014-4-13T3:25:37Z</time></trkpt>
<trkpt lat="46.89721855" lon="7.18230698"><ele></ele><time>2014-4-13T3:25:40Z</time></trkpt>
<trkpt lat="46.89733598" lon="7.18251636"><ele></ele><time>2014-4-13T3:25:43Z</time></trkpt>
<trkpt lat="46.89740824" lon="7.18264729"><ele></ele><time>2014-4-13T3:25:46Z</time></trkpt>
<trkpt lat="46.89776849" lon="7.18285549"><ele></ele><time>2014-4-13T3:25:49Z</time></trkpt>
<trkpt lat="46.89809195" lon="7.18269649"><ele></ele><time>2014-4-13T3:25:52Z</time></trkpt>
<trkpt lat="46.89826218" lon="7.18236758"><ele></ele><time>2014-4-13T3:25:55Z</time></trkpt>
<trkpt lat="46.89834273" lon="7.18220975"><ele></ele><time>2014-4-13T3:25:58Z</time></trkpt>
<trkpt lat="46.89867407" lon="7.18153886"><ele></ele><time>2014-4-13T3:26:1Z</time></trkpt>
<trkpt lat="46.89869192" lon="7.18147315"><ele></ele><time>2014-4-13T3:26:4Z</time></trkpt>
<trkpt lat="46.89877264" lon="7.18136779"><ele></ele><time>2014-4-13T3:26:7Z</time></trkpt>
<trkpt lat="46.89875437" lon="7.18123670"><ele></ele><time>2014-4-13T3:26:10Z</time></trkpt>
<trkpt lat="46.89833846" lon="7.18029382"><ele></ele><time>2014-4-13T3:26:13Z</time></trkpt>
<trkpt lat="46.89794979" lon="7.17946887"><ele></ele><time>2014-4-13T3:26:16Z</time></trkpt>
<trkpt lat="46.89784971" lon="7.17897065"><ele></ele><time>2014-4-13T3:26:19Z</time></trkpt>
<trkpt lat="46.89795633" lon="7.17839272"><ele></ele><time>2014-4-13T3:26:22Z</time></trkpt>
<trkpt lat="46.89823410" lon="7.17790581"><ele></ele><time>2014-4-13T3:26:25Z</time></trkpt>
<trkpt lat="46.89880751" lon="7.17690568"><ele></ele><time>2014-4-13T3:26:28Z</time></trkpt>
<trkpt lat="46.89920188" lon="7.17627386"><ele></ele><time>2014-4-13T3:26:31Z</time></trkpt>
<trkpt lat="46.89973220" lon="7.17611376"><ele></ele><time>2014-4-13T3:26:34Z</time></trkpt>
<trkpt lat="46.90053234" lon="7.17592617"><ele></ele><time>2014-4-13T3:26:37Z</time></trkpt>
<trkpt lat="46.90110776" lon="7.17580522"><ele></ele><time>2014-4-13T3:26:40Z</time></trkpt>
<trkpt lat="46.90125209" lon="7.17596197"><ele></ele><time>2014-4-13T3:26:43Z</time></trkpt>
<trkpt lat="46.90126165" lon="7.17622440"><ele></ele><time>2014-4-13T3:26:46Z</time></trkpt>
<trkpt lat="46.90148972" lon="7.17762762"><ele></ele><time>2014-4-13T3:26:49Z</time></trkpt>
<trkpt lat="46.90168041" lon="7.17841409"><ele></ele><time>2014-4-13T3:26:52Z</time></trkpt>
<trkpt lat="46.90184310" lon="7.17872833"><ele></ele><time>2014-4-13T3:26:55Z</time></trkpt>
<trkpt lat="46.90212264" lon="7.17905506"><ele></ele><time>2014-4-13T3:26:58Z</time></trkpt>
<trkpt lat="46.90277316" lon="7.18031184"><ele></ele><time>2014-4-13T3:27:1Z</time></trkpt>
<trkpt lat="46.90342368" lon="7.18155554"><ele></ele><time>2014-4-13T3:27:4Z</time></trkpt>
<trkpt lat="46.90411929" lon="7.18290411"><ele></ele><time>2014-4-13T3:27:7Z</time></trkpt>
<trkpt lat="46.90420051" lon="7.18303495"><ele></ele><time>2014-4-13T3:27:10Z</time></trkpt>
<trkpt lat="46.90471457" lon="7.18360995"><ele></ele><time>2014-4-13T3:27:13Z</time></trkpt>
<trkpt lat="46.90520282" lon="7.18472332"><ele></ele><time>2014-4-13T3:27:16Z</time></trkpt>
<trkpt lat="46.90556592" lon="7.18623097"><ele></ele><time>2014-4-13T3:27:19Z</time></trkpt>
<trkpt lat="46.90591042" lon="7.18743687"><ele></ele><time>2014-4-13T3:27:22Z</time></trkpt>
<trkpt lat="46.90611108" lon="7.18869592"><ele></ele><time>2014-4-13T3:27:25Z</time></trkpt>
<trkpt lat="46.90639179" lon="7.18957401"><ele></ele><time>2014-4-13T3:27:28Z</time></trkpt>
<trkpt lat="46.90660855" lon="7.18995363"><ele></ele><time>2014-4-13T3:27:31Z</time></trkpt>
<trkpt lat="46.90665364" lon="7.19003216"><ele></ele><time>2014-4-13T3:27:34Z</time></trkpt>
<trkpt lat="46.90675314" lon="7.19028111"><ele></ele><time>2014-4-13T3:27:37Z</time></trkpt>
<trkpt lat="46.90680812" lon="7.19074027"><ele></ele><time>2014-4-13T3:27:40Z</time></trkpt>
<trkpt lat="46.90685389" lon="7.19108124"><ele></ele><time>2014-4-13T3:27:43Z</time></trkpt>
<trkpt lat="46.90696252" lon="7.19139582"><ele></ele><time>2014-4-13T3:27:46Z</time></trkpt>
<trkpt lat="46.90706176" lon="7.19156597"><ele></ele><time>2014-4-13T3:27:49Z</time></trkpt>
<trkpt lat="46.90735077" lon="7.19207651"><ele></ele><time>2014-4-13T3:27:52Z</time></trkpt>
<trkpt lat="46.90797396" lon="7.19324185"><ele></ele><time>2014-4-13T3:27:55Z</time></trkpt>
<trkpt lat="46.90824528" lon="7.19396252"><ele></ele><time>2014-4-13T3:27:58Z</time></trkpt>
<trkpt lat="46.90829960" lon="7.19409353"><ele></ele><time>2014-4-13T3:28:1Z</time></trkpt>
<trkpt lat="46.90866857" lon="7.19419688"><ele></ele><time>2014-4-13T3:28:4Z</time></trkpt>
<trkpt lat="46.90916243" lon="7.19378768"><ele></ele><time>2014-4-13T3:28:7Z</time></trkpt>
<trkpt lat="46.90935999" lon="7.19360302"><ele></ele><time>2014-4-13T3:28:10Z</time></trkpt>
<trkpt lat="46.90944004" lon="7.19316951"><ele></ele><time>2014-4-13T3:28:13Z</time></trkpt>
<trkpt lat="46.90944892" lon="7.19313012"><ele></ele><time>2014-4-13T3:28:16Z</time></trkpt>
<trkpt lat="46.90941137" lon="7.19242151"><ele></ele><time>2014-4-13T3:28:19Z</time></trkpt>
<trkpt lat="46.90930207" lon="7.19179194"><ele></ele><time>2014-4-13T3:28:22Z</time></trkpt>
<trkpt lat="46.90922890" lon="7.19120161"><ele></ele><time>2014-4-13T3:28:25Z</time></trkpt>
<trkpt lat="46.90925446" lon="7.19057146"><ele></ele><time>2014-4-13T3:28:28Z</time></trkpt>
<trkpt lat="46.90933443" lon="7.19008539"><ele></ele><time>2014-4-13T3:28:31Z</time></trkpt>
<trkpt lat="46.90943224" lon="7.18957309"><ele></ele><time>2014-4-13T3:28:34Z</time></trkpt>
<trkpt lat="46.90952092" lon="7.18898199"><ele></ele><time>2014-4-13T3:28:37Z</time></trkpt>
<trkpt lat="46.90952025" lon="7.18866692"><ele></ele><time>2014-4-13T3:28:40Z</time></trkpt>
<trkpt lat="46.90957314" lon="7.18819418"><ele></ele><time>2014-4-13T3:28:43Z</time></trkpt>
<trkpt lat="46.90959971" lon="7.18798405"><ele></ele><time>2014-4-13T3:28:46Z</time></trkpt>
<trkpt lat="46.90955428" lon="7.18777425"><ele></ele><time>2014-4-13T3:28:49Z</time></trkpt>
<trkpt lat="46.90951807" lon="7.18769562"><ele></ele><time>2014-4-13T3:28:52Z</time></trkpt>
<trkpt lat="46.90942747" lon="7.18739413"><ele></ele><time>2014-4-13T3:28:55Z</time></trkpt>
<trkpt lat="46.90943576" lon="7.18706598"><ele></ele><time>2014-4-13T3:28:58Z</time></trkpt>
<trkpt lat="46.90948924" lon="7.18684260"><ele></ele><time>2014-4-13T3:29:1Z</time></trkpt>
<trkpt lat="46.90949821" lon="7.18681628"><ele></ele><time>2014-4-13T3:29:4Z</time></trkpt>
<trkpt lat="46.90956082" lon="7.18667161"><ele></ele><time>2014-4-13T3:29:7Z</time></trkpt>
<trkpt lat="46.90956979" lon="7.18665845"><ele></ele><time>2014-4-13T3:29:10Z</time></trkpt>
<trkpt lat="46.90960550" lon="7.18654018"><ele></ele><time>2014-4-13T3:29:13Z</time></trkpt>
<trkpt lat="46.90971287" lon="7.18627715"><ele></ele><time>2014-4-13T3:29:16Z</time></trkpt>
<trkpt lat="46.90972159" lon="7.18614581"><ele></ele><time>2014-4-13T3:29:19Z</time></trkpt>
<trkpt lat="46.90970315" lon="7.18594900"><ele></ele><time>2014-4-13T3:29:22Z</time></trkpt>
<trkpt lat="46.90968471" lon="7.18575220"><ele></ele><time>2014-4-13T3:29:25Z</time></trkpt>
<trkpt lat="46.90964799" lon="7.18541114"><ele></ele><time>2014-4-13T3:29:28Z</time></trkpt>
<trkpt lat="46.90969200" lon="7.18497771"><ele></ele><time>2014-4-13T3:29:31Z</time></trkpt>
<trkpt lat="46.90964607" lon="7.18455794"><ele></ele><time>2014-4-13T3:29:34Z</time></trkpt>
<trkpt lat="46.90973475" lon="7.18395369"><ele></ele><time>2014-4-13T3:29:37Z</time></trkpt>
<trkpt lat="46.90986852" lon="7.18345430"><ele></ele><time>2014-4-13T3:29:40Z</time></trkpt>
<trkpt lat="46.91006466" lon="7.18267889"><ele></ele><time>2014-4-13T3:29:43Z</time></trkpt>
<trkpt lat="46.91015409" lon="7.18244218"><ele></ele><time>2014-4-13T3:29:46Z</time></trkpt>
<trkpt lat="46.91023448" lon="7.18216617"><ele></ele><time>2014-4-13T3:29:49Z</time></trkpt>
<trkpt lat="46.91028787" lon="7.18192963"><ele></ele><time>2014-4-13T3:29:52Z</time></trkpt>
<trkpt lat="46.91033229" lon="7.18168002"><ele></ele><time>2014-4-13T3:29:55Z</time></trkpt>
<trkpt lat="46.91036783" lon="7.18146988"><ele></ele><time>2014-4-13T3:29:58Z</time></trkpt>
<trkpt lat="46.91040329" lon="7.18124650"><ele></ele><time>2014-4-13T3:30:1Z</time></trkpt>
<trkpt lat="46.91048375" lon="7.18102304"><ele></ele><time>2014-4-13T3:30:4Z</time></trkpt>
<trkpt lat="46.91064418" lon="7.18036590"><ele></ele><time>2014-4-13T3:30:7Z</time></trkpt>
<trkpt lat="46.91087628" lon="7.17957725"><ele></ele><time>2014-4-13T3:30:10Z</time></trkpt>
<trkpt lat="46.91094778" lon="7.17935370"><ele></ele><time>2014-4-13T3:30:13Z</time></trkpt>
<trkpt lat="46.91111818" lon="7.17915606"><ele></ele><time>2014-4-13T3:30:16Z</time></trkpt>
<trkpt lat="46.91127090" lon="7.17903712"><ele></ele><time>2014-4-13T3:30:19Z</time></trkpt>
<trkpt lat="46.91162160" lon="7.17899605"><ele></ele><time>2014-4-13T3:30:22Z</time></trkpt>
<trkpt lat="46.91259281" lon="7.17887325"><ele></ele><time>2014-4-13T3:30:25Z</time></trkpt>
<trkpt lat="46.91338406" lon="7.17873814"><ele></ele><time>2014-4-13T3:30:28Z</time></trkpt>
<trkpt lat="46.91458032" lon="7.17869296"><ele></ele><time>2014-4-13T3:30:31Z</time></trkpt>
<trkpt lat="46.91482332" lon="7.17871810"><ele></ele><time>2014-4-13T3:30:34Z</time></trkpt>
<trkpt lat="46.91491317" lon="7.17869136"><ele></ele><time>2014-4-13T3:30:37Z</time></trkpt>
<trkpt lat="46.91518273" lon="7.17854569"><ele></ele><time>2014-4-13T3:30:40Z</time></trkpt>
<trkpt lat="46.91552362" lon="7.17816330"><ele></ele><time>2014-4-13T3:30:43Z</time></trkpt>
<trkpt lat="46.91590014" lon="7.17758386"><ele></ele><time>2014-4-13T3:30:46Z</time></trkpt>
<trkpt lat="46.91591782" lon="7.17743944"><ele></ele><time>2014-4-13T3:30:49Z</time></trkpt>
<trkpt lat="46.91590852" lon="7.17730818"><ele></ele><time>2014-4-13T3:30:52Z</time></trkpt>
<trkpt lat="46.91586284" lon="7.17701959"><ele></ele><time>2014-4-13T3:30:55Z</time></trkpt>
<trkpt lat="46.91585337" lon="7.17680963"><ele></ele><time>2014-4-13T3:30:58Z</time></trkpt>
<trkpt lat="46.91582588" lon="7.17657343"><ele></ele><time>2014-4-13T3:31:1Z</time></trkpt>
<trkpt lat="46.91581632" lon="7.17632406"><ele></ele><time>2014-4-13T3:31:4Z</time></trkpt>
<trkpt lat="46.91572538" lon="7.17589131"><ele></ele><time>2014-4-13T3:31:7Z</time></trkpt>
<trkpt lat="46.91559822" lon="7.17537993"><ele></ele><time>2014-4-13T3:31:10Z</time></trkpt>
<trkpt lat="46.91547124" lon="7.17492110"><ele></ele><time>2014-4-13T3:31:13Z</time></trkpt>
<trkpt lat="46.91540770" lon="7.17464576"><ele></ele><time>2014-4-13T3:31:16Z</time></trkpt>
<trkpt lat="46.91532606" lon="7.17437049"><ele></ele><time>2014-4-13T3:31:19Z</time></trkpt>
<trkpt lat="46.91528985" lon="7.17425248"><ele></ele><time>2014-4-13T3:31:22Z</time></trkpt>
<trkpt lat="46.91517158" lon="7.17368863"><ele></ele><time>2014-4-13T3:31:25Z</time></trkpt>
<trkpt lat="46.91508056" lon="7.17321647"><ele></ele><time>2014-4-13T3:31:28Z</time></trkpt>
<trkpt lat="46.91497159" lon="7.17279696"><ele></ele><time>2014-4-13T3:31:31Z</time></trkpt>
<trkpt lat="46.91491694" lon="7.17248213"><ele></ele><time>2014-4-13T3:31:34Z</time></trkpt>
<trkpt lat="46.91483522" lon="7.17218064"><ele></ele><time>2014-4-13T3:31:37Z</time></trkpt>
<trkpt lat="46.91477177" lon="7.17197092"><ele></ele><time>2014-4-13T3:31:40Z</time></trkpt>
<trkpt lat="46.91469926" lon="7.17173497"><ele></ele><time>2014-4-13T3:31:43Z</time></trkpt>
<trkpt lat="46.91458116" lon="7.17121052"><ele></ele><time>2014-4-13T3:31:46Z</time></trkpt>
<trkpt lat="46.91441780" lon="7.17060744"><ele></ele><time>2014-4-13T3:31:49Z</time></trkpt>
<trkpt lat="46.91418210" lon="7.16983412"><ele></ele><time>2014-4-13T3:31:52Z</time></trkpt>
<trkpt lat="46.91401882" lon="7.16925737"><ele></ele><time>2014-4-13T3:31:55Z</time></trkpt>
<trkpt lat="46.91382780" lon="7.16835254"><ele></ele><time>2014-4-13T3:31:58Z</time></trkpt>
<trkpt lat="46.91369168" lon="7.16785440"><ele></ele><time>2014-4-13T3:32:1Z</time></trkpt>
<trkpt lat="46.91341910" lon="7.16668747"><ele></ele><time>2014-4-13T3:32:4Z</time></trkpt>
<trkpt lat="46.91311969" lon="7.16562574"><ele></ele><time>2014-4-13T3:32:7Z</time></trkpt>
<trkpt lat="46.91327149" lon="7.16516549"><ele></ele><time>2014-4-13T3:32:10Z</time></trkpt>
<trkpt lat="46.91332547" lon="7.16515208"><ele></ele><time>2014-4-13T3:32:13Z</time></trkpt>
<trkpt lat="46.91365832" lon="7.16515040"><ele></ele><time>2014-4-13T3:32:16Z</time></trkpt>
<trkpt lat="46.91374825" lon="7.16513682"><ele></ele><time>2014-4-13T3:32:19Z</time></trkpt>
<trkpt lat="46.91387390" lon="7.16501805"><ele></ele><time>2014-4-13T3:32:22Z</time></trkpt>
<trkpt lat="46.91394556" lon="7.16489953"><ele></ele><time>2014-4-13T3:32:25Z</time></trkpt>
<trkpt lat="46.91410666" lon="7.16455738"><ele></ele><time>2014-4-13T3:32:28Z</time></trkpt>
<trkpt lat="46.91421412" lon="7.16437306"><ele></ele><time>2014-4-13T3:32:31Z</time></trkpt>
<trkpt lat="46.91431194" lon="7.16389999"><ele></ele><time>2014-4-13T3:32:34Z</time></trkpt>
<trkpt lat="46.91433784" lon="7.16345357"><ele></ele><time>2014-4-13T3:32:37Z</time></trkpt>
<trkpt lat="46.91446365" lon="7.16338727"><ele></ele><time>2014-4-13T3:32:40Z</time></trkpt>
<trkpt lat="46.91465241" lon="7.16333379"><ele></ele><time>2014-4-13T3:32:43Z</time></trkpt>
<trkpt lat="46.91532732" lon="7.16343538"><ele></ele><time>2014-4-13T3:32:46Z</time></trkpt>
<trkpt lat="46.91575916" lon="7.16345935"><ele></ele><time>2014-4-13T3:32:49Z</time></trkpt>
<trkpt lat="46.91588514" lon="7.16347184"><ele></ele><time>2014-4-13T3:32:52Z</time></trkpt>
<trkpt lat="46.91609208" lon="7.16349707"><ele></ele><time>2014-4-13T3:32:55Z</time></trkpt>
<trkpt lat="46.91631689" lon="7.16348282"><ele></ele><time>2014-4-13T3:32:58Z</time></trkpt>
<trkpt lat="46.91699180" lon="7.16357125"><ele></ele><time>2014-4-13T3:33:1Z</time></trkpt>
<trkpt lat="46.91724384" lon="7.16366186"><ele></ele><time>2014-4-13T3:33:4Z</time></trkpt>
<trkpt lat="46.91732490" lon="7.16370083"><ele></ele><time>2014-4-13T3:33:7Z</time></trkpt>
<trkpt lat="46.91781121" lon="7.16392153"><ele></ele><time>2014-4-13T3:33:10Z</time></trkpt>
<trkpt lat="46.91804515" lon="7.16394659"><ele></ele><time>2014-4-13T3:33:13Z</time></trkpt>
<trkpt lat="46.91826903" lon="7.16353848"><ele></ele><time>2014-4-13T3:33:16Z</time></trkpt>
<trkpt lat="46.91830440" lon="7.16330194"><ele></ele><time>2014-4-13T3:33:19Z</time></trkpt>
<trkpt lat="46.91842955" lon="7.16294688"><ele></ele><time>2014-4-13T3:33:22Z</time></trkpt>
<trkpt lat="46.91847397" lon="7.16273658"><ele></ele><time>2014-4-13T3:33:25Z</time></trkpt>
<trkpt lat="46.91855418" lon="7.16240793"><ele></ele><time>2014-4-13T3:33:28Z</time></trkpt>
<trkpt lat="46.91882132" lon="7.16127754"><ele></ele><time>2014-4-13T3:33:31Z</time></trkpt>
<trkpt lat="46.91883900" lon="7.16117243"><ele></ele><time>2014-4-13T3:33:34Z</time></trkpt>
<trkpt lat="46.91903531" lon="7.16051504"><ele></ele><time>2014-4-13T3:33:37Z</time></trkpt>
<trkpt lat="46.91949304" lon="7.16007943"><ele></ele><time>2014-4-13T3:33:40Z</time></trkpt>
<trkpt lat="46.92041882" lon="7.15977265"><ele></ele><time>2014-4-13T3:33:43Z</time></trkpt>
<trkpt lat="46.92065251" lon="7.15970577"><ele></ele><time>2014-4-13T3:33:46Z</time></trkpt>
<trkpt lat="46.92084152" lon="7.15975732"><ele></ele><time>2014-4-13T3:33:49Z</time></trkpt>
<trkpt lat="46.92105744" lon="7.15976930"><ele></ele><time>2014-4-13T3:33:52Z</time></trkpt>
<trkpt lat="46.92135424" lon="7.15975463"><ele></ele><time>2014-4-13T3:33:55Z</time></trkpt>
<trkpt lat="46.92163311" lon="7.15976637"><ele></ele><time>2014-4-13T3:33:58Z</time></trkpt>
<trkpt lat="46.92185800" lon="7.15975204"><ele></ele><time>2014-4-13T3:34:1Z</time></trkpt>
<trkpt lat="46.92255076" lon="7.15980099"><ele></ele><time>2014-4-13T3:34:4Z</time></trkpt>
<trkpt lat="46.92308167" lon="7.15989017"><ele></ele><time>2014-4-13T3:34:7Z</time></trkpt>
<trkpt lat="46.92333355" lon="7.15988883"><ele></ele><time>2014-4-13T3:34:10Z</time></trkpt>
<trkpt lat="46.92353094" lon="7.15969085"><ele></ele><time>2014-4-13T3:34:13Z</time></trkpt>
<trkpt lat="46.92365633" lon="7.15945389"><ele></ele><time>2014-4-13T3:34:16Z</time></trkpt>
<trkpt lat="46.92370947" lon="7.15912540"><ele></ele><time>2014-4-13T3:34:19Z</time></trkpt>
<trkpt lat="46.92357268" lon="7.15833834"><ele></ele><time>2014-4-13T3:34:22Z</time></trkpt>
<trkpt lat="46.92338283" lon="7.15797172"><ele></ele><time>2014-4-13T3:34:25Z</time></trkpt>
<trkpt lat="46.92327403" lon="7.15761775"><ele></ele><time>2014-4-13T3:34:28Z</time></trkpt>
<trkpt lat="46.92322827" lon="7.15730293"><ele></ele><time>2014-4-13T3:34:31Z</time></trkpt>
<trkpt lat="46.92300975" lon="7.15621429"><ele></ele><time>2014-4-13T3:34:34Z</time></trkpt>
<trkpt lat="46.92285544" lon="7.15566368"><ele></ele><time>2014-4-13T3:34:37Z</time></trkpt>
<trkpt lat="46.92270105" lon="7.15506052"><ele></ele><time>2014-4-13T3:34:40Z</time></trkpt>
<trkpt lat="46.92272787" lon="7.15500788"><ele></ele><time>2014-4-13T3:34:43Z</time></trkpt>
<trkpt lat="46.92305116" lon="7.15478299"><ele></ele><time>2014-4-13T3:34:46Z</time></trkpt>
<trkpt lat="46.92377863" lon="7.15430648"><ele></ele><time>2014-4-13T3:34:49Z</time></trkpt>
<trkpt lat="46.92473944" lon="7.15365806"><ele></ele><time>2014-4-13T3:34:52Z</time></trkpt>
<trkpt lat="46.92501789" lon="7.15348589"><ele></ele><time>2014-4-13T3:34:55Z</time></trkpt>
<trkpt lat="46.92508972" lon="7.15341984"><ele></ele><time>2014-4-13T3:34:58Z</time></trkpt>
<trkpt lat="46.92510724" lon="7.15324910"><ele></ele><time>2014-4-13T3:35:1Z</time></trkpt>
<trkpt lat="46.92506173" lon="7.15301299"><ele></ele><time>2014-4-13T3:35:4Z</time></trkpt>
<trkpt lat="46.92524085" lon="7.15272314"><ele></ele><time>2014-4-13T3:35:7Z</time></trkpt>
<trkpt lat="46.92606739" lon="7.15229860"><ele></ele><time>2014-4-13T3:35:10Z</time></trkpt>
<trkpt lat="46.92672319" lon="7.15194060"><ele></ele><time>2014-4-13T3:35:13Z</time></trkpt>
<trkpt lat="46.92719023" lon="7.15167549"><ele></ele><time>2014-4-13T3:35:16Z</time></trkpt>
<trkpt lat="46.92731654" lon="7.15183239"><ele></ele><time>2014-4-13T3:35:19Z</time></trkpt>
<trkpt lat="46.92774218" lon="7.15295934"><ele></ele><time>2014-4-13T3:35:22Z</time></trkpt>
<trkpt lat="46.92831265" lon="7.15447948"><ele></ele><time>2014-4-13T3:35:25Z</time></trkpt>
<trkpt lat="46.92839429" lon="7.15474167"><ele></ele><time>2014-4-13T3:35:28Z</time></trkpt>
<trkpt lat="46.92852027" lon="7.15478039"><ele></ele><time>2014-4-13T3:35:31Z</time></trkpt>
<trkpt lat="46.92877189" lon="7.15466087"><ele></ele><time>2014-4-13T3:35:34Z</time></trkpt>
<trkpt lat="46.92905931" lon="7.15451494"><ele></ele><time>2014-4-13T3:35:37Z</time></trkpt>
<trkpt lat="46.92933784" lon="7.15436901"><ele></ele><time>2014-4-13T3:35:40Z</time></trkpt>
<trkpt lat="46.92949927" lon="7.15417120"><ele></ele><time>2014-4-13T3:35:43Z</time></trkpt>
<trkpt lat="46.92955275" lon="7.15398705"><ele></ele><time>2014-4-13T3:35:46Z</time></trkpt>
<trkpt lat="46.92974076" lon="7.15360525"><ele></ele><time>2014-4-13T3:35:49Z</time></trkpt>
<trkpt lat="46.93095328" lon="7.15286354"><ele></ele><time>2014-4-13T3:35:52Z</time></trkpt>
<trkpt lat="46.93143801" lon="7.15246699"><ele></ele><time>2014-4-13T3:35:55Z</time></trkpt>
<trkpt lat="46.93159928" lon="7.15220346"><ele></ele><time>2014-4-13T3:35:58Z</time></trkpt>
<trkpt lat="46.93167044" lon="7.15187481"><ele></ele><time>2014-4-13T3:36:1Z</time></trkpt>
<trkpt lat="46.93169701" lon="7.15173022"><ele></ele><time>2014-4-13T3:36:4Z</time></trkpt>
<trkpt lat="46.93184076" lon="7.15165067"><ele></ele><time>2014-4-13T3:36:7Z</time></trkpt>
<trkpt lat="46.93198510" lon="7.15182066"><ele></ele><time>2014-4-13T3:36:10Z</time></trkpt>
<trkpt lat="46.93227385" lon="7.15218678"><ele></ele><time>2014-4-13T3:36:13Z</time></trkpt>
<trkpt lat="46.93248139" lon="7.15243514"><ele></ele><time>2014-4-13T3:36:16Z</time></trkpt>
<trkpt lat="46.93265288" lon="7.15268374"><ele></ele><time>2014-4-13T3:36:19Z</time></trkpt>
<trkpt lat="46.93298623" lon="7.15286580"><ele></ele><time>2014-4-13T3:36:22Z</time></trkpt>
<trkpt lat="46.93329200" lon="7.15286421"><ele></ele><time>2014-4-13T3:36:25Z</time></trkpt>
<trkpt lat="46.93335503" lon="7.15286387"><ele></ele><time>2014-4-13T3:36:28Z</time></trkpt>
<trkpt lat="46.93355343" lon="7.15307292"><ele></ele><time>2014-4-13T3:36:31Z</time></trkpt>
<trkpt lat="46.93360792" lon="7.15329587"><ele></ele><time>2014-4-13T3:36:34Z</time></trkpt>
<trkpt lat="46.93368134" lon="7.15386014"><ele></ele><time>2014-4-13T3:36:37Z</time></trkpt>
<trkpt lat="46.93402450" lon="7.15440991"><ele></ele><time>2014-4-13T3:36:40Z</time></trkpt>
<trkpt lat="46.93423220" lon="7.15473706"><ele></ele><time>2014-4-13T3:36:43Z</time></trkpt>
<trkpt lat="46.93433153" lon="7.15489414"><ele></ele><time>2014-4-13T3:36:46Z</time></trkpt>
<trkpt lat="46.93441300" lon="7.15510385"><ele></ele><time>2014-4-13T3:36:49Z</time></trkpt>
<trkpt lat="46.93427880" lon="7.15540661"><ele></ele><time>2014-4-13T3:36:52Z</time></trkpt>
<trkpt lat="46.93412734" lon="7.15597205"><ele></ele><time>2014-4-13T3:36:55Z</time></trkpt>
<trkpt lat="46.93409130" lon="7.15597222"><ele></ele><time>2014-4-13T3:36:58Z</time></trkpt>
<trkpt lat="46.93409130" lon="7.15597222"><ele></ele><time>2014-4-13T3:37:1Z</time></trkpt>
<trkpt lat="46.93409130" lon="7.15597222"><ele></ele><time>2014-4-13T3:37:4Z</time></trkpt>
</trkseg></trk></gpx>